﻿<?xml version="1.0" encoding="utf-8"?><gpx creator="Garmin Desktop App" version="1.1" xsi:schemaLocation="http://www.topografix.com/GPX/1/1 http://www.topografix.com/GPX/1/1/gpx.xsd http://www.garmin.com/xmlschemas/WaypointExtension/v1 http://www8.garmin.com/xmlschemas/WaypointExtensionv1.xsd http://www.garmin.com/xmlschemas/TrackPointExtension/v1 http://www.garmin.com/xmlschemas/TrackPointExtensionv1.xsd http://www.garmin.com/xmlschemas/GpxExtensions/v3 http://www8.garmin.com/xmlschemas/GpxExtensionsv3.xsd http://www.garmin.com/xmlschemas/ActivityExtension/v1 http://www8.garmin.com/xmlschemas/ActivityExtensionv1.xsd http://www.garmin.com/xmlschemas/AdventuresExtensions/v1 http://www8.garmin.com/xmlschemas/AdventuresExtensionv1.xsd http://www.garmin.com/xmlschemas/PressureExtension/v1 http://www.garmin.com/xmlschemas/PressureExtensionv1.xsd http://www.garmin.com/xmlschemas/TripExtensions/v1 http://www.garmin.com/xmlschemas/TripExtensionsv1.xsd http://www.garmin.com/xmlschemas/TripMetaDataExtensions/v1 http://www.garmin.com/xmlschemas/TripMetaDataExtensionsv1.xsd http://www.garmin.com/xmlschemas/ViaPointTransportationModeExtensions/v1 http://www.garmin.com/xmlschemas/ViaPointTransportationModeExtensionsv1.xsd http://www.garmin.com/xmlschemas/CreationTimeExtension/v1 http://www.garmin.com/xmlschemas/CreationTimeExtensionsv1.xsd http://www.garmin.com/xmlschemas/AccelerationExtension/v1 http://www.garmin.com/xmlschemas/AccelerationExtensionv1.xsd http://www.garmin.com/xmlschemas/PowerExtension/v1 http://www.garmin.com/xmlschemas/PowerExtensionv1.xsd http://www.garmin.com/xmlschemas/VideoExtension/v1 http://www.garmin.com/xmlschemas/VideoExtensionv1.xsd" xmlns="http://www.topografix.com/GPX/1/1" xmlns:xsi="http://www.w3.org/2001/XMLSchema-instance" xmlns:wptx1="http://www.garmin.com/xmlschemas/WaypointExtension/v1" xmlns:gpxtrx="http://www.garmin.com/xmlschemas/GpxExtensions/v3" xmlns:gpxtpx="http://www.garmin.com/xmlschemas/TrackPointExtension/v1" xmlns:gpxx="http://www.garmin.com/xmlschemas/GpxExtensions/v3" xmlns:trp="http://www.garmin.com/xmlschemas/TripExtensions/v1" xmlns:adv="http://www.garmin.com/xmlschemas/AdventuresExtensions/v1" xmlns:prs="http://www.garmin.com/xmlschemas/PressureExtension/v1" xmlns:tmd="http://www.garmin.com/xmlschemas/TripMetaDataExtensions/v1" xmlns:vptm="http://www.garmin.com/xmlschemas/ViaPointTransportationModeExtensions/v1" xmlns:ctx="http://www.garmin.com/xmlschemas/CreationTimeExtension/v1" xmlns:gpxacc="http://www.garmin.com/xmlschemas/AccelerationExtension/v1" xmlns:gpxpx="http://www.garmin.com/xmlschemas/PowerExtension/v1" xmlns:vidx1="http://www.garmin.com/xmlschemas/VideoExtension/v1">

  <metadata>
    <link href="http://www.garmin.com">
      <text>Garmin International</text>
    </link>
    <time>2021-01-20T17:18:23Z</time>
    <bounds maxlat="46.283144988119602" maxlon="8.069934016093612" minlat="46.271807961165905" minlon="8.037405023351312" />
  </metadata>

  <trk>
    <name>hohture18</name>
    <desc>Traccia corrente: 27 MAR 2013 08:51</desc>
    <extensions>
      <gpxx:TrackExtension>
        <gpxx:DisplayColor>Yellow</gpxx:DisplayColor>
      </gpxx:TrackExtension>
    </extensions>
    <trkseg>
      <trkpt lat="46.279412023723125" lon="8.037911960855126">
        <ele>1845.3900149999999</ele>
        <time>2013-03-27T08:04:06Z</time>
      </trkpt>
      <trkpt lat="46.279342034831643" lon="8.038173979148269">
        <ele>1848.2700199999999</ele>
        <time>2013-03-27T08:04:21Z</time>
      </trkpt>
      <trkpt lat="46.279343040660024" lon="8.03824002854526">
        <ele>1850.679932</ele>
        <time>2013-03-27T08:04:34Z</time>
      </trkpt>
      <trkpt lat="46.27931596711278" lon="8.038394004106522">
        <ele>1852.599976</ele>
        <time>2013-03-27T08:06:17Z</time>
      </trkpt>
      <trkpt lat="46.279460974037647" lon="8.038429040461779">
        <ele>1854.5200199999999</ele>
        <time>2013-03-27T08:09:20Z</time>
      </trkpt>
      <trkpt lat="46.279534986242652" lon="8.038373971357942">
        <ele>1855.4799800000001</ele>
        <time>2013-03-27T08:09:44Z</time>
      </trkpt>
      <trkpt lat="46.279673958197236" lon="8.038428034633398">
        <ele>1858.3701169999999</ele>
        <time>2013-03-27T08:10:17Z</time>
      </trkpt>
      <trkpt lat="46.279848972335458" lon="8.038468016311526">
        <ele>1861.25</ele>
        <time>2013-03-27T08:10:37Z</time>
      </trkpt>
      <trkpt lat="46.279984004795551" lon="8.038482014089823">
        <ele>1864.130005</ele>
        <time>2013-03-27T08:10:54Z</time>
      </trkpt>
      <trkpt lat="46.280099004507065" lon="8.038472961634398">
        <ele>1867.4998780000001</ele>
        <time>2013-03-27T08:11:11Z</time>
      </trkpt>
      <trkpt lat="46.280226996168494" lon="8.038458963856101">
        <ele>1870.8599850000001</ele>
        <time>2013-03-27T08:11:25Z</time>
      </trkpt>
      <trkpt lat="46.280354987829924" lon="8.038472961634398">
        <ele>1873.2700199999999</ele>
        <time>2013-03-27T08:11:43Z</time>
      </trkpt>
      <trkpt lat="46.280456995591521" lon="8.038420993834734">
        <ele>1876.150024</ele>
        <time>2013-03-27T08:11:58Z</time>
      </trkpt>
      <trkpt lat="46.280565960332751" lon="8.038426022976637">
        <ele>1879.51001</ele>
        <time>2013-03-27T08:12:12Z</time>
      </trkpt>
      <trkpt lat="46.28066997975111" lon="8.038534987717867">
        <ele>1882.880005</ele>
        <time>2013-03-27T08:12:32Z</time>
      </trkpt>
      <trkpt lat="46.280783973634243" lon="8.038630960509181">
        <ele>1885.759888</ele>
        <time>2013-03-27T08:12:48Z</time>
      </trkpt>
      <trkpt lat="46.280898973345757" lon="8.038685023784638">
        <ele>1888.650024</ele>
        <time>2013-03-27T08:13:09Z</time>
      </trkpt>
      <trkpt lat="46.281035011634231" lon="8.038797006011009">
        <ele>1891.0500489999999</ele>
        <time>2013-03-27T08:13:31Z</time>
      </trkpt>
      <trkpt lat="46.281200973317027" lon="8.039021976292133">
        <ele>1894.419922</ele>
        <time>2013-03-27T08:13:54Z</time>
      </trkpt>
      <trkpt lat="46.281325025483966" lon="8.039187015965581">
        <ele>1896.8199460000001</ele>
        <time>2013-03-27T08:14:20Z</time>
      </trkpt>
      <trkpt lat="46.281483024358749" lon="8.03942103870213">
        <ele>1898.73999</ele>
        <time>2013-03-27T08:14:45Z</time>
      </trkpt>
      <trkpt lat="46.281609004363418" lon="8.039674004539847">
        <ele>1901.1400149999999</ele>
        <time>2013-03-27T08:15:12Z</time>
      </trkpt>
      <trkpt lat="46.281561981886625" lon="8.03976402617991">
        <ele>1900.1800539999999</ele>
        <time>2013-03-27T08:15:53Z</time>
      </trkpt>
      <trkpt lat="46.281573968008161" lon="8.039776012301445">
        <ele>1896.8199460000001</ele>
        <time>2013-03-27T08:17:13Z</time>
      </trkpt>
      <trkpt lat="46.281581008806825" lon="8.03980702534318">
        <ele>1895.380005</ele>
        <time>2013-03-27T08:18:12Z</time>
      </trkpt>
      <trkpt lat="46.281452011317015" lon="8.040129980072379">
        <ele>1897.780029</ele>
        <time>2013-03-27T08:18:35Z</time>
      </trkpt>
      <trkpt lat="46.281458968296647" lon="8.040376994758844">
        <ele>1899.219971</ele>
        <time>2013-03-27T08:18:53Z</time>
      </trkpt>
      <trkpt lat="46.281432984396815" lon="8.040529964491725">
        <ele>1900.1800539999999</ele>
        <time>2013-03-27T08:19:05Z</time>
      </trkpt>
      <trkpt lat="46.281474977731705" lon="8.040763987228274">
        <ele>1901.6298830000001</ele>
        <time>2013-03-27T08:19:19Z</time>
      </trkpt>
      <trkpt lat="46.281567011028528" lon="8.041085014119744">
        <ele>1904.51001</ele>
        <time>2013-03-27T08:19:49Z</time>
      </trkpt>
      <trkpt lat="46.28157296217978" lon="8.041434958577156">
        <ele>1906.429932</ele>
        <time>2013-03-27T08:20:15Z</time>
      </trkpt>
      <trkpt lat="46.281553013250232" lon="8.041746011003852">
        <ele>1907.3900149999999</ele>
        <time>2013-03-27T08:20:40Z</time>
      </trkpt>
      <trkpt lat="46.281525017693639" lon="8.041775012388825">
        <ele>1909.320068</ele>
        <time>2013-03-27T08:20:42Z</time>
      </trkpt>
      <trkpt lat="46.281514037400484" lon="8.042138032615185">
        <ele>1911.7200929999999</ele>
        <time>2013-03-27T08:21:12Z</time>
      </trkpt>
      <trkpt lat="46.281379004940391" lon="8.042418994009495">
        <ele>1914.119995</ele>
        <time>2013-03-27T08:21:44Z</time>
      </trkpt>
      <trkpt lat="46.281332988291979" lon="8.042593002319336">
        <ele>1915.079956</ele>
        <time>2013-03-27T08:22:20Z</time>
      </trkpt>
      <trkpt lat="46.281200973317027" lon="8.042792994529009">
        <ele>1917.9700929999999</ele>
        <time>2013-03-27T08:22:42Z</time>
      </trkpt>
      <trkpt lat="46.281036017462611" lon="8.042907994240522">
        <ele>1920.3698730000001</ele>
        <time>2013-03-27T08:23:06Z</time>
      </trkpt>
      <trkpt lat="46.280896961688995" lon="8.042988041415811">
        <ele>1923.73999</ele>
        <time>2013-03-27T08:23:30Z</time>
      </trkpt>
      <trkpt lat="46.280708033591509" lon="8.042986029759049">
        <ele>1925.660034</ele>
        <time>2013-03-27T08:23:54Z</time>
      </trkpt>
      <trkpt lat="46.280551962554455" lon="8.04303196258843">
        <ele>1928.540039</ele>
        <time>2013-03-27T08:24:20Z</time>
      </trkpt>
      <trkpt lat="46.280413996428251" lon="8.043113015592098">
        <ele>1931.910034</ele>
        <time>2013-03-27T08:24:41Z</time>
      </trkpt>
      <trkpt lat="46.280337972566485" lon="8.043193984776735">
        <ele>1934.790039</ele>
        <time>2013-03-27T08:25:00Z</time>
      </trkpt>
      <trkpt lat="46.280257003381848" lon="8.043301021680236">
        <ele>1937.190063</ele>
        <time>2013-03-27T08:25:18Z</time>
      </trkpt>
      <trkpt lat="46.280191037803888" lon="8.043430019170046">
        <ele>1939.599976</ele>
        <time>2013-03-27T08:25:36Z</time>
      </trkpt>
      <trkpt lat="46.280120965093374" lon="8.043557005003095">
        <ele>1942.4799800000001</ele>
        <time>2013-03-27T08:25:59Z</time>
      </trkpt>
      <trkpt lat="46.280056005343795" lon="8.043716009706259">
        <ele>1945.8500979999999</ele>
        <time>2013-03-27T08:26:24Z</time>
      </trkpt>
      <trkpt lat="46.27998199313879" lon="8.043845007196069">
        <ele>1948.7299800000001</ele>
        <time>2013-03-27T08:26:46Z</time>
      </trkpt>
      <trkpt lat="46.279970007017255" lon="8.0440419819206">
        <ele>1952.089966</ele>
        <time>2013-03-27T08:27:08Z</time>
      </trkpt>
      <trkpt lat="46.279966989532113" lon="8.044241974130273">
        <ele>1952.5699460000001</ele>
        <time>2013-03-27T08:27:28Z</time>
      </trkpt>
      <trkpt lat="46.280034966766834" lon="8.044502986595035">
        <ele>1954.4998780000001</ele>
        <time>2013-03-27T08:27:54Z</time>
      </trkpt>
      <trkpt lat="46.280058017000556" lon="8.044753018766642">
        <ele>1955.4600829999999</ele>
        <time>2013-03-27T08:28:14Z</time>
      </trkpt>
      <trkpt lat="46.280096992850304" lon="8.045043032616377">
        <ele>1956.8999020000001</ele>
        <time>2013-03-27T08:28:41Z</time>
      </trkpt>
      <trkpt lat="46.280052987858653" lon="8.045369004830718">
        <ele>1958.339966</ele>
        <time>2013-03-27T08:29:06Z</time>
      </trkpt>
      <trkpt lat="46.280072014778852" lon="8.04558701813221">
        <ele>1959.780029</ele>
        <time>2013-03-27T08:29:24Z</time>
      </trkpt>
      <trkpt lat="46.280081989243627" lon="8.045780975371599">
        <ele>1960.75</ele>
        <time>2013-03-27T08:29:38Z</time>
      </trkpt>
      <trkpt lat="46.280134962871671" lon="8.046012986451387">
        <ele>1961.7100829999999</ele>
        <time>2013-03-27T08:30:06Z</time>
      </trkpt>
      <trkpt lat="46.280137980356812" lon="8.046251032501459">
        <ele>1962.670044</ele>
        <time>2013-03-27T08:30:29Z</time>
      </trkpt>
      <trkpt lat="46.280157007277012" lon="8.04646803997457">
        <ele>1963.630005</ele>
        <time>2013-03-27T08:30:51Z</time>
      </trkpt>
      <trkpt lat="46.280089030042291" lon="8.046778002753854">
        <ele>1965.549927</ele>
        <time>2013-03-27T08:31:17Z</time>
      </trkpt>
      <trkpt lat="46.280048964545131" lon="8.047110009938479">
        <ele>1967.4799800000001</ele>
        <time>2013-03-27T08:31:44Z</time>
      </trkpt>
      <trkpt lat="46.279963972046971" lon="8.047449979931116">
        <ele>1969.400024</ele>
        <time>2013-03-27T08:32:12Z</time>
      </trkpt>
      <trkpt lat="46.279818965122104" lon="8.047763966023922">
        <ele>1971.320068</ele>
        <time>2013-03-27T08:32:39Z</time>
      </trkpt>
      <trkpt lat="46.279827011749148" lon="8.047890029847622">
        <ele>1971.8000489999999</ele>
        <time>2013-03-27T08:33:02Z</time>
      </trkpt>
      <trkpt lat="46.279725003987551" lon="8.048117011785507">
        <ele>1972.76001</ele>
        <time>2013-03-27T08:33:27Z</time>
      </trkpt>
      <trkpt lat="46.279720980674028" lon="8.04840199649334">
        <ele>1974.200073</ele>
        <time>2013-03-27T08:33:51Z</time>
      </trkpt>
      <trkpt lat="46.27970396541059" lon="8.048662003129721">
        <ele>1975.650024</ele>
        <time>2013-03-27T08:34:12Z</time>
      </trkpt>
      <trkpt lat="46.279616039246321" lon="8.04894195869565">
        <ele>1977.089966</ele>
        <time>2013-03-27T08:34:34Z</time>
      </trkpt>
      <trkpt lat="46.279569016769528" lon="8.049277989193797">
        <ele>1978.0500489999999</ele>
        <time>2013-03-27T08:34:59Z</time>
      </trkpt>
      <trkpt lat="46.279530040919781" lon="8.049544030800462">
        <ele>1979.48999</ele>
        <time>2013-03-27T08:35:23Z</time>
      </trkpt>
      <trkpt lat="46.279549989849329" lon="8.049899004399777">
        <ele>1980.9300539999999</ele>
        <time>2013-03-27T08:35:50Z</time>
      </trkpt>
      <trkpt lat="46.279577985405922" lon="8.050073012709618">
        <ele>1981.410034</ele>
        <time>2013-03-27T08:36:07Z</time>
      </trkpt>
      <trkpt lat="46.279587037861347" lon="8.050019033253193">
        <ele>1978.0500489999999</ele>
        <time>2013-03-27T08:38:32Z</time>
      </trkpt>
      <trkpt lat="46.279598018154502" lon="8.050071001052856">
        <ele>1975.169922</ele>
        <time>2013-03-27T08:40:04Z</time>
      </trkpt>
      <trkpt lat="46.279670018702745" lon="8.050127997994423">
        <ele>1975.650024</ele>
        <time>2013-03-27T08:40:33Z</time>
      </trkpt>
      <trkpt lat="46.279635988175869" lon="8.050081981346011">
        <ele>1974.6899410000001</ele>
        <time>2013-03-27T08:41:17Z</time>
      </trkpt>
      <trkpt lat="46.279791975393891" lon="8.050137972459197">
        <ele>1974.200073</ele>
        <time>2013-03-27T08:41:57Z</time>
      </trkpt>
      <trkpt lat="46.27970396541059" lon="8.050342993810773">
        <ele>1975.169922</ele>
        <time>2013-03-27T08:42:18Z</time>
      </trkpt>
      <trkpt lat="46.279655015096068" lon="8.050603000447154">
        <ele>1976.130005</ele>
        <time>2013-03-27T08:42:41Z</time>
      </trkpt>
      <trkpt lat="46.279565999284387" lon="8.050795029848814">
        <ele>1978.0500489999999</ele>
        <time>2013-03-27T08:43:13Z</time>
      </trkpt>
      <trkpt lat="46.279586032032967" lon="8.050947999581695">
        <ele>1979.01001</ele>
        <time>2013-03-27T08:43:33Z</time>
      </trkpt>
      <trkpt lat="46.279541021212935" lon="8.050829982385039">
        <ele>1979.48999</ele>
        <time>2013-03-27T08:43:49Z</time>
      </trkpt>
      <trkpt lat="46.279558036476374" lon="8.050743984058499">
        <ele>1979.01001</ele>
        <time>2013-03-27T08:44:10Z</time>
      </trkpt>
      <trkpt lat="46.27967999316752" lon="8.050633007660508">
        <ele>1981.410034</ele>
        <time>2013-03-27T08:44:33Z</time>
      </trkpt>
      <trkpt lat="46.279822988435626" lon="8.050680030137301">
        <ele>1981.8999020000001</ele>
        <time>2013-03-27T08:44:52Z</time>
      </trkpt>
      <trkpt lat="46.279699020087719" lon="8.050669971853495">
        <ele>1981.8999020000001</ele>
        <time>2013-03-27T08:45:09Z</time>
      </trkpt>
      <trkpt lat="46.279813013970852" lon="8.050672989338636">
        <ele>1981.410034</ele>
        <time>2013-03-27T08:45:34Z</time>
      </trkpt>
      <trkpt lat="46.279907980933785" lon="8.050734009593725">
        <ele>1981.8999020000001</ele>
        <time>2013-03-27T08:45:52Z</time>
      </trkpt>
      <trkpt lat="46.279999008402228" lon="8.050780026242137">
        <ele>1981.8999020000001</ele>
        <time>2013-03-27T08:46:13Z</time>
      </trkpt>
      <trkpt lat="46.280113002285361" lon="8.050850015133619">
        <ele>1982.380005</ele>
        <time>2013-03-27T08:46:30Z</time>
      </trkpt>
      <trkpt lat="46.280132029205561" lon="8.050889996811748">
        <ele>1981.8999020000001</ele>
        <time>2013-03-27T08:46:33Z</time>
      </trkpt>
      <trkpt lat="46.280222972854972" lon="8.050992004573345">
        <ele>1982.8599850000001</ele>
        <time>2013-03-27T08:46:44Z</time>
      </trkpt>
      <trkpt lat="46.280241999775171" lon="8.051044978201389">
        <ele>1983.339966</ele>
        <time>2013-03-27T08:46:48Z</time>
      </trkpt>
      <trkpt lat="46.280277958139777" lon="8.05106601677835">
        <ele>1982.8599850000001</ele>
        <time>2013-03-27T08:46:51Z</time>
      </trkpt>
      <trkpt lat="46.28032498061657" lon="8.051147991791368">
        <ele>1983.339966</ele>
        <time>2013-03-27T08:46:58Z</time>
      </trkpt>
      <trkpt lat="46.280455989763141" lon="8.051286963745952">
        <ele>1983.339966</ele>
        <time>2013-03-27T08:47:14Z</time>
      </trkpt>
      <trkpt lat="46.28060401417315" lon="8.051413027569652">
        <ele>1983.8199460000001</ele>
        <time>2013-03-27T08:47:29Z</time>
      </trkpt>
      <trkpt lat="46.280707027763128" lon="8.051536995917559">
        <ele>1984.299927</ele>
        <time>2013-03-27T08:47:43Z</time>
      </trkpt>
      <trkpt lat="46.280717002227902" lon="8.0515400134027">
        <ele>1983.8199460000001</ele>
        <time>2013-03-27T08:47:44Z</time>
      </trkpt>
      <trkpt lat="46.280780034139752" lon="8.05158200673759">
        <ele>1984.780029</ele>
        <time>2013-03-27T08:47:49Z</time>
      </trkpt>
      <trkpt lat="46.280854968354106" lon="8.0517110042274">
        <ele>1985.26001</ele>
        <time>2013-03-27T08:48:01Z</time>
      </trkpt>
      <trkpt lat="46.280934009701014" lon="8.051799014210701">
        <ele>1985.26001</ele>
        <time>2013-03-27T08:48:14Z</time>
      </trkpt>
      <trkpt lat="46.281078010797501" lon="8.051880989223719">
        <ele>1985.26001</ele>
        <time>2013-03-27T08:48:31Z</time>
      </trkpt>
      <trkpt lat="46.281190998852253" lon="8.051944021135569">
        <ele>1986.219971</ele>
        <time>2013-03-27T08:48:41Z</time>
      </trkpt>
      <trkpt lat="46.281352015212178" lon="8.052024990320206">
        <ele>1987.660034</ele>
        <time>2013-03-27T08:49:02Z</time>
      </trkpt>
      <trkpt lat="46.281454022973776" lon="8.052006969228387">
        <ele>1987.660034</ele>
        <time>2013-03-27T08:49:18Z</time>
      </trkpt>
      <trkpt lat="46.281627025455236" lon="8.052062960341573">
        <ele>1988.619995</ele>
        <time>2013-03-27T08:49:37Z</time>
      </trkpt>
      <trkpt lat="46.281805979087949" lon="8.052043011412025">
        <ele>1989.099976</ele>
        <time>2013-03-27T08:49:55Z</time>
      </trkpt>
      <trkpt lat="46.281965989619493" lon="8.051982996985316">
        <ele>1989.099976</ele>
        <time>2013-03-27T08:50:10Z</time>
      </trkpt>
      <trkpt lat="46.282088030129671" lon="8.051953995600343">
        <ele>1990.549927</ele>
        <time>2013-03-27T08:50:29Z</time>
      </trkpt>
      <trkpt lat="46.282157013192773" lon="8.051932035014033">
        <ele>1991.51001</ele>
        <time>2013-03-27T08:50:37Z</time>
      </trkpt>
      <trkpt lat="46.282268995419145" lon="8.051945026963949">
        <ele>1992.469971</ele>
        <time>2013-03-27T08:50:48Z</time>
      </trkpt>
      <trkpt lat="46.282385000959039" lon="8.052004035562277">
        <ele>1993.429932</ele>
        <time>2013-03-27T08:51:05Z</time>
      </trkpt>
      <trkpt lat="46.282435962930322" lon="8.052074024453759">
        <ele>1993.429932</ele>
        <time>2013-03-27T08:51:12Z</time>
      </trkpt>
      <trkpt lat="46.282515004277229" lon="8.052233029156923">
        <ele>1993.910034</ele>
        <time>2013-03-27T08:51:29Z</time>
      </trkpt>
      <trkpt lat="46.282526990398765" lon="8.052295977249742">
        <ele>1993.910034</ele>
        <time>2013-03-27T08:51:49Z</time>
      </trkpt>
      <trkpt lat="46.282551968470216" lon="8.052397985011339">
        <ele>1993.910034</ele>
        <time>2013-03-27T08:52:18Z</time>
      </trkpt>
      <trkpt lat="46.282550962641835" lon="8.052427992224693">
        <ele>1994.3900149999999</ele>
        <time>2013-03-27T08:52:35Z</time>
      </trkpt>
      <trkpt lat="46.282548028975725" lon="8.052496975287795">
        <ele>1994.3900149999999</ele>
        <time>2013-03-27T08:53:50Z</time>
      </trkpt>
      <trkpt lat="46.282568983733654" lon="8.052755976095796">
        <ele>1995.829956</ele>
        <time>2013-03-27T08:54:07Z</time>
      </trkpt>
      <trkpt lat="46.282574012875557" lon="8.052873993292451">
        <ele>1996.320068</ele>
        <time>2013-03-27T08:54:27Z</time>
      </trkpt>
      <trkpt lat="46.28258197568357" lon="8.052922021597624">
        <ele>1996.320068</ele>
        <time>2013-03-27T08:55:06Z</time>
      </trkpt>
      <trkpt lat="46.282553980126977" lon="8.053080020472407">
        <ele>1997.76001</ele>
        <time>2013-03-27T08:55:17Z</time>
      </trkpt>
      <trkpt lat="46.282535037025809" lon="8.053131988272071">
        <ele>1998.2398679999999</ele>
        <time>2013-03-27T08:55:21Z</time>
      </trkpt>
      <trkpt lat="46.28247301094234" lon="8.05330197326839">
        <ele>1999.200073</ele>
        <time>2013-03-27T08:55:35Z</time>
      </trkpt>
      <trkpt lat="46.282446021214128" lon="8.053432982414961">
        <ele>1999.679932</ele>
        <time>2013-03-27T08:55:47Z</time>
      </trkpt>
      <trkpt lat="46.282349964603782" lon="8.053641021251679">
        <ele>2002.079956</ele>
        <time>2013-03-27T08:56:06Z</time>
      </trkpt>
      <trkpt lat="46.282367985695601" lon="8.053942015394568">
        <ele>2003.0399170000001</ele>
        <time>2013-03-27T08:56:30Z</time>
      </trkpt>
      <trkpt lat="46.282316017895937" lon="8.054147036746144">
        <ele>2005.450073</ele>
        <time>2013-03-27T08:56:47Z</time>
      </trkpt>
      <trkpt lat="46.282293973490596" lon="8.054388016462326">
        <ele>2006.410034</ele>
        <time>2013-03-27T08:57:06Z</time>
      </trkpt>
      <trkpt lat="46.282260026782751" lon="8.054505027830601">
        <ele>2007.8500979999999</ele>
        <time>2013-03-27T08:57:27Z</time>
      </trkpt>
      <trkpt lat="46.282234964892268" lon="8.054726980626583">
        <ele>2009.7698969999999</ele>
        <time>2013-03-27T08:57:45Z</time>
      </trkpt>
      <trkpt lat="46.282205963507295" lon="8.05476201698184">
        <ele>2009.7698969999999</ele>
        <time>2013-03-27T08:58:28Z</time>
      </trkpt>
      <trkpt lat="46.282208980992436" lon="8.05478397756815">
        <ele>2009.2899170000001</ele>
        <time>2013-03-27T08:58:49Z</time>
      </trkpt>
      <trkpt lat="46.282121976837516" lon="8.054792024195194">
        <ele>2007.369995</ele>
        <time>2013-03-27T09:01:45Z</time>
      </trkpt>
      <trkpt lat="46.282173022627831" lon="8.054778026416898">
        <ele>2005.9300539999999</ele>
        <time>2013-03-27T09:03:08Z</time>
      </trkpt>
      <trkpt lat="46.282161958515644" lon="8.05495698004961">
        <ele>2007.369995</ele>
        <time>2013-03-27T09:04:16Z</time>
      </trkpt>
      <trkpt lat="46.282165981829166" lon="8.055238025262952">
        <ele>2008.8100589999999</ele>
        <time>2013-03-27T09:04:36Z</time>
      </trkpt>
      <trkpt lat="46.282095992937684" lon="8.055524015799165">
        <ele>2011.219971</ele>
        <time>2013-03-27T09:04:59Z</time>
      </trkpt>
      <trkpt lat="46.282003959640861" lon="8.055676985532045">
        <ele>2013.1400149999999</ele>
        <time>2013-03-27T09:05:12Z</time>
      </trkpt>
      <trkpt lat="46.281868005171418" lon="8.055940009653568">
        <ele>2015.540039</ele>
        <time>2013-03-27T09:05:38Z</time>
      </trkpt>
      <trkpt lat="46.281682010740042" lon="8.056157017126679">
        <ele>2018.429932</ele>
        <time>2013-03-27T09:06:01Z</time>
      </trkpt>
      <trkpt lat="46.281620990484953" lon="8.056364972144365">
        <ele>2020.349976</ele>
        <time>2013-03-27T09:06:22Z</time>
      </trkpt>
      <trkpt lat="46.281491992995143" lon="8.056561024859548">
        <ele>2022.2700199999999</ele>
        <time>2013-03-27T09:06:46Z</time>
      </trkpt>
      <trkpt lat="46.281601041555405" lon="8.056830000132322">
        <ele>2025.639893</ele>
        <time>2013-03-27T09:07:32Z</time>
      </trkpt>
      <trkpt lat="46.28161596134305" lon="8.056863024830818">
        <ele>2026.119995</ele>
        <time>2013-03-27T09:07:37Z</time>
      </trkpt>
      <trkpt lat="46.281739007681608" lon="8.057177010923624">
        <ele>2027.559937</ele>
        <time>2013-03-27T09:07:57Z</time>
      </trkpt>
      <trkpt lat="46.281715035438538" lon="8.057513041421771">
        <ele>2029.959961</ele>
        <time>2013-03-27T09:08:22Z</time>
      </trkpt>
      <trkpt lat="46.281509008258581" lon="8.057684032246471">
        <ele>2032.839966</ele>
        <time>2013-03-27T09:08:45Z</time>
      </trkpt>
      <trkpt lat="46.281522000208497" lon="8.057965999469161">
        <ele>2035.25</ele>
        <time>2013-03-27T09:09:06Z</time>
      </trkpt>
      <trkpt lat="46.281487969681621" lon="8.05809298530221">
        <ele>2036.6899410000001</ele>
        <time>2013-03-27T09:09:21Z</time>
      </trkpt>
      <trkpt lat="46.281318990513682" lon="8.058260036632419">
        <ele>2039.089966</ele>
        <time>2013-03-27T09:09:45Z</time>
      </trkpt>
      <trkpt lat="46.281221006065607" lon="8.05837201885879">
        <ele>2040.540039</ele>
        <time>2013-03-27T09:09:59Z</time>
      </trkpt>
      <trkpt lat="46.281050015240908" lon="8.058561030775309">
        <ele>2042.4600829999999</ele>
        <time>2013-03-27T09:10:24Z</time>
      </trkpt>
      <trkpt lat="46.280906014144421" lon="8.058595983311534">
        <ele>2042.940063</ele>
        <time>2013-03-27T09:10:35Z</time>
      </trkpt>
      <trkpt lat="46.280772993341088" lon="8.058787006884813">
        <ele>2044.8599850000001</ele>
        <time>2013-03-27T09:11:00Z</time>
      </trkpt>
      <trkpt lat="46.280756983906031" lon="8.058937964960933">
        <ele>2045.8199460000001</ele>
        <time>2013-03-27T09:11:17Z</time>
      </trkpt>
      <trkpt lat="46.280696969479322" lon="8.059121025726199">
        <ele>2047.75</ele>
        <time>2013-03-27T09:11:35Z</time>
      </trkpt>
      <trkpt lat="46.280598985031247" lon="8.059292016550899">
        <ele>2049.669922</ele>
        <time>2013-03-27T09:11:53Z</time>
      </trkpt>
      <trkpt lat="46.280473005026579" lon="8.059526039287448">
        <ele>2050.6298830000001</ele>
        <time>2013-03-27T09:12:14Z</time>
      </trkpt>
      <trkpt lat="46.280407039448619" lon="8.059688983485103">
        <ele>2054.469971</ele>
        <time>2013-03-27T09:12:28Z</time>
      </trkpt>
      <trkpt lat="46.280308971181512" lon="8.059922000393271">
        <ele>2056.8798830000001</ele>
        <time>2013-03-27T09:12:50Z</time>
      </trkpt>
      <trkpt lat="46.280249040573835" lon="8.060258030891419">
        <ele>2058.320068</ele>
        <time>2013-03-27T09:13:17Z</time>
      </trkpt>
      <trkpt lat="46.280168993398547" lon="8.060556007549167">
        <ele>2060.719971</ele>
        <time>2013-03-27T09:13:40Z</time>
      </trkpt>
      <trkpt lat="46.280118031427264" lon="8.060818025842309">
        <ele>2062.6501459999999</ele>
        <time>2013-03-27T09:14:00Z</time>
      </trkpt>
      <trkpt lat="46.280079977586865" lon="8.060977030545473">
        <ele>2063.610107</ele>
        <time>2013-03-27T09:14:25Z</time>
      </trkpt>
      <trkpt lat="46.280075032263994" lon="8.06095096282661">
        <ele>2063.1301269999999</ele>
        <time>2013-03-27T09:15:25Z</time>
      </trkpt>
      <trkpt lat="46.280065979808569" lon="8.060920033603907">
        <ele>2062.6501459999999</ele>
        <time>2013-03-27T09:15:47Z</time>
      </trkpt>
      <trkpt lat="46.280175028368831" lon="8.061107033863664">
        <ele>2064.0900879999999</ele>
        <time>2013-03-27T09:16:08Z</time>
      </trkpt>
      <trkpt lat="46.280273012816906" lon="8.061194960027933">
        <ele>2064.5698240000002</ele>
        <time>2013-03-27T09:16:25Z</time>
      </trkpt>
      <trkpt lat="46.280265972018242" lon="8.061227984726429">
        <ele>2065.0500489999999</ele>
        <time>2013-03-27T09:16:53Z</time>
      </trkpt>
      <trkpt lat="46.280265972018242" lon="8.061317000538111">
        <ele>2068.4099120000001</ele>
        <time>2013-03-27T09:17:03Z</time>
      </trkpt>
      <trkpt lat="46.280351970344782" lon="8.061453960835934">
        <ele>2069.860107</ele>
        <time>2013-03-27T09:17:20Z</time>
      </trkpt>
      <trkpt lat="46.280354987829924" lon="8.061478016898036">
        <ele>2071.3000489999999</ele>
        <time>2013-03-27T09:17:23Z</time>
      </trkpt>
      <trkpt lat="46.280423970893025" lon="8.061614977195859">
        <ele>2073.6999510000001</ele>
        <time>2013-03-27T09:17:44Z</time>
      </trkpt>
      <trkpt lat="46.280471999198198" lon="8.061750009655953">
        <ele>2075.6198730000001</ele>
        <time>2013-03-27T09:18:02Z</time>
      </trkpt>
      <trkpt lat="46.280513992533088" lon="8.061822010204196">
        <ele>2078.030029</ele>
        <time>2013-03-27T09:18:18Z</time>
      </trkpt>
      <trkpt lat="46.280507035553455" lon="8.061868026852608">
        <ele>2080.9099120000001</ele>
        <time>2013-03-27T09:18:36Z</time>
      </trkpt>
      <trkpt lat="46.280566966161132" lon="8.061866015195847">
        <ele>2082.3500979999999</ele>
        <time>2013-03-27T09:18:44Z</time>
      </trkpt>
      <trkpt lat="46.280633015558124" lon="8.06193801574409">
        <ele>2083.790039</ele>
        <time>2013-03-27T09:19:00Z</time>
      </trkpt>
      <trkpt lat="46.280678026378155" lon="8.06202300824225">
        <ele>2085.719971</ele>
        <time>2013-03-27T09:19:14Z</time>
      </trkpt>
      <trkpt lat="46.280737034976482" lon="8.062104983255267">
        <ele>2087.639893</ele>
        <time>2013-03-27T09:19:27Z</time>
      </trkpt>
      <trkpt lat="46.280775004997849" lon="8.062197016552091">
        <ele>2091</ele>
        <time>2013-03-27T09:19:45Z</time>
      </trkpt>
      <trkpt lat="46.280858991667628" lon="8.062307992950082">
        <ele>2093.4099120000001</ele>
        <time>2013-03-27T09:20:04Z</time>
      </trkpt>
      <trkpt lat="46.280890004709363" lon="8.062335988506675">
        <ele>2095.8100589999999</ele>
        <time>2013-03-27T09:20:19Z</time>
      </trkpt>
      <trkpt lat="46.280964016914368" lon="8.062465991824865">
        <ele>2098.209961</ele>
        <time>2013-03-27T09:20:41Z</time>
      </trkpt>
      <trkpt lat="46.280990000814199" lon="8.062569005414844">
        <ele>2101.5798340000001</ele>
        <time>2013-03-27T09:21:00Z</time>
      </trkpt>
      <trkpt lat="46.281027970835567" lon="8.06271200068295">
        <ele>2103.9799800000001</ele>
        <time>2013-03-27T09:21:18Z</time>
      </trkpt>
      <trkpt lat="46.281037023290992" lon="8.062792969867587">
        <ele>2106.8701169999999</ele>
        <time>2013-03-27T09:21:34Z</time>
      </trkpt>
      <trkpt lat="46.281075999140739" lon="8.062891038134694">
        <ele>2109.2700199999999</ele>
        <time>2013-03-27T09:21:49Z</time>
      </trkpt>
      <trkpt lat="46.281098965555429" lon="8.062966978177428">
        <ele>2112.1499020000001</ele>
        <time>2013-03-27T09:22:05Z</time>
      </trkpt>
      <trkpt lat="46.281091002747416" lon="8.063032021746039">
        <ele>2114.080078</ele>
        <time>2013-03-27T09:22:22Z</time>
      </trkpt>
      <trkpt lat="46.281098965555429" lon="8.063047025352716">
        <ele>2115.040039</ele>
        <time>2013-03-27T09:22:24Z</time>
      </trkpt>
      <trkpt lat="46.281147999688983" lon="8.063138974830508">
        <ele>2116.4799800000001</ele>
        <time>2013-03-27T09:22:40Z</time>
      </trkpt>
      <trkpt lat="46.281202984973788" lon="8.063240982592106">
        <ele>2119.8398440000001</ele>
        <time>2013-03-27T09:22:55Z</time>
      </trkpt>
      <trkpt lat="46.281223017722368" lon="8.063281970098615">
        <ele>2121.290039</ele>
        <time>2013-03-27T09:23:03Z</time>
      </trkpt>
      <trkpt lat="46.281276997178793" lon="8.063350031152368">
        <ele>2123.209961</ele>
        <time>2013-03-27T09:23:23Z</time>
      </trkpt>
      <trkpt lat="46.281299041584134" lon="8.063421025872231">
        <ele>2126.0900879999999</ele>
        <time>2013-03-27T09:23:34Z</time>
      </trkpt>
      <trkpt lat="46.281324019655585" lon="8.063509035855532">
        <ele>2128.5</ele>
        <time>2013-03-27T09:23:49Z</time>
      </trkpt>
      <trkpt lat="46.281348997727036" lon="8.06357198394835">
        <ele>2130.8999020000001</ele>
        <time>2013-03-27T09:24:03Z</time>
      </trkpt>
      <trkpt lat="46.281353021040559" lon="8.063725037500262">
        <ele>2132.820068</ele>
        <time>2013-03-27T09:24:21Z</time>
      </trkpt>
      <trkpt lat="46.281350003555417" lon="8.063740963116288">
        <ele>2133.780029</ele>
        <time>2013-03-27T09:24:23Z</time>
      </trkpt>
      <trkpt lat="46.281407000496984" lon="8.063793014734983">
        <ele>2136.669922</ele>
        <time>2013-03-27T09:24:42Z</time>
      </trkpt>
      <trkpt lat="46.281455028802156" lon="8.063874989748001">
        <ele>2139.5500489999999</ele>
        <time>2013-03-27T09:24:58Z</time>
      </trkpt>
      <trkpt lat="46.281482018530369" lon="8.063930980861187">
        <ele>2141.9499510000001</ele>
        <time>2013-03-27T09:25:15Z</time>
      </trkpt>
      <trkpt lat="46.281508002430201" lon="8.063984038308263">
        <ele>2144.3598630000001</ele>
        <time>2013-03-27T09:25:27Z</time>
      </trkpt>
      <trkpt lat="46.28157002851367" lon="8.064083028584719">
        <ele>2147.23999</ele>
        <time>2013-03-27T09:25:47Z</time>
      </trkpt>
      <trkpt lat="46.281621996313334" lon="8.064107000827789">
        <ele>2149.6501459999999</ele>
        <time>2013-03-27T09:26:05Z</time>
      </trkpt>
      <trkpt lat="46.281664995476604" lon="8.064225018024445">
        <ele>2152.530029</ele>
        <time>2013-03-27T09:26:19Z</time>
      </trkpt>
      <trkpt lat="46.281675975769758" lon="8.064244966953993">
        <ele>2154.4499510000001</ele>
        <time>2013-03-27T09:26:27Z</time>
      </trkpt>
      <trkpt lat="46.28169902600348" lon="8.064328031614423">
        <ele>2156.860107</ele>
        <time>2013-03-27T09:26:46Z</time>
      </trkpt>
      <trkpt lat="46.281758034601808" lon="8.064422998577356">
        <ele>2160.219971</ele>
        <time>2013-03-27T09:27:05Z</time>
      </trkpt>
      <trkpt lat="46.281791981309652" lon="8.064535986632109">
        <ele>2162.1401369999999</ele>
        <time>2013-03-27T09:27:25Z</time>
      </trkpt>
      <trkpt lat="46.281875967979431" lon="8.064660960808396">
        <ele>2165.030029</ele>
        <time>2013-03-27T09:27:48Z</time>
      </trkpt>
      <trkpt lat="46.281907986849546" lon="8.064722986891866">
        <ele>2166.9499510000001</ele>
        <time>2013-03-27T09:28:01Z</time>
      </trkpt>
      <trkpt lat="46.281940005719662" lon="8.064864976331592">
        <ele>2166.9499510000001</ele>
        <time>2013-03-27T09:28:23Z</time>
      </trkpt>
      <trkpt lat="46.281948974356055" lon="8.064896995201707">
        <ele>2169.830078</ele>
        <time>2013-03-27T09:28:26Z</time>
      </trkpt>
      <trkpt lat="46.281960038468242" lon="8.06498802267015">
        <ele>2172.719971</ele>
        <time>2013-03-27T09:28:42Z</time>
      </trkpt>
      <trkpt lat="46.281998008489609" lon="8.06501199491322">
        <ele>2174.1599120000001</ele>
        <time>2013-03-27T09:28:58Z</time>
      </trkpt>
      <trkpt lat="46.282026004046202" lon="8.065046025440097">
        <ele>2177.040039</ele>
        <time>2013-03-27T09:29:12Z</time>
      </trkpt>
      <trkpt lat="46.282072020694613" lon="8.065116014331579">
        <ele>2179.929932</ele>
        <time>2013-03-27T09:29:28Z</time>
      </trkpt>
      <trkpt lat="46.282066991552711" lon="8.065128000453115">
        <ele>2179.929932</ele>
        <time>2013-03-27T09:29:29Z</time>
      </trkpt>
      <trkpt lat="46.282084006816149" lon="8.065148033201695">
        <ele>2180.889893</ele>
        <time>2013-03-27T09:29:33Z</time>
      </trkpt>
      <trkpt lat="46.282133962959051" lon="8.065179968252778">
        <ele>2182.8100589999999</ele>
        <time>2013-03-27T09:29:45Z</time>
      </trkpt>
      <trkpt lat="46.282181991264224" lon="8.06524601764977">
        <ele>2186.179932</ele>
        <time>2013-03-27T09:30:02Z</time>
      </trkpt>
      <trkpt lat="46.282236976549029" lon="8.065330004319549">
        <ele>2188.0998540000001</ele>
        <time>2013-03-27T09:30:21Z</time>
      </trkpt>
      <trkpt lat="46.282289028167725" lon="8.065368980169296">
        <ele>2190.0200199999999</ele>
        <time>2013-03-27T09:30:37Z</time>
      </trkpt>
      <trkpt lat="46.282360022887588" lon="8.065421031787992">
        <ele>2192.419922</ele>
        <time>2013-03-27T09:30:52Z</time>
      </trkpt>
      <trkpt lat="46.282425988465548" lon="8.06552798487246">
        <ele>2194.830078</ele>
        <time>2013-03-27T09:31:09Z</time>
      </trkpt>
      <trkpt lat="46.282479967921972" lon="8.065621023997665">
        <ele>2197.2299800000001</ele>
        <time>2013-03-27T09:31:27Z</time>
      </trkpt>
      <trkpt lat="46.282575018703938" lon="8.065738035365939">
        <ele>2199.1499020000001</ele>
        <time>2013-03-27T09:31:51Z</time>
      </trkpt>
      <trkpt lat="46.282609971240163" lon="8.065854962915182">
        <ele>2201.080078</ele>
        <time>2013-03-27T09:32:12Z</time>
      </trkpt>
      <trkpt lat="46.282617012038827" lon="8.065836019814014">
        <ele>2203.4799800000001</ele>
        <time>2013-03-27T09:32:14Z</time>
      </trkpt>
      <trkpt lat="46.282690018415451" lon="8.065965017303824">
        <ele>2206.360107</ele>
        <time>2013-03-27T09:32:34Z</time>
      </trkpt>
      <trkpt lat="46.282716002315283" lon="8.066029977053404">
        <ele>2208.290039</ele>
        <time>2013-03-27T09:33:01Z</time>
      </trkpt>
      <trkpt lat="46.282770987600088" lon="8.066127961501479">
        <ele>2211.6499020000001</ele>
        <time>2013-03-27T09:33:24Z</time>
      </trkpt>
      <trkpt lat="46.282868972048163" lon="8.066303981468082">
        <ele>2213.0900879999999</ele>
        <time>2013-03-27T09:34:07Z</time>
      </trkpt>
      <trkpt lat="46.282869977876544" lon="8.066311022266746">
        <ele>2215.9799800000001</ele>
        <time>2013-03-27T09:34:08Z</time>
      </trkpt>
      <trkpt lat="46.282877018675208" lon="8.066312028095126">
        <ele>2215.9799800000001</ele>
        <time>2013-03-27T09:34:09Z</time>
      </trkpt>
      <trkpt lat="46.28292697481811" lon="8.066500034183264">
        <ele>2219.3400879999999</ele>
        <time>2013-03-27T09:34:31Z</time>
      </trkpt>
      <trkpt lat="46.282959999516606" lon="8.066624002531171">
        <ele>2221.26001</ele>
        <time>2013-03-27T09:34:51Z</time>
      </trkpt>
      <trkpt lat="46.28299000672996" lon="8.066748976707459">
        <ele>2224.1499020000001</ele>
        <time>2013-03-27T09:35:11Z</time>
      </trkpt>
      <trkpt lat="46.28301297314465" lon="8.066862970590591">
        <ele>2226.5500489999999</ele>
        <time>2013-03-27T09:35:30Z</time>
      </trkpt>
      <trkpt lat="46.283092014491558" lon="8.067053994163871">
        <ele>2229.429932</ele>
        <time>2013-03-27T09:35:52Z</time>
      </trkpt>
      <trkpt lat="46.283093020319939" lon="8.067067991942167">
        <ele>2230.4001459999999</ele>
        <time>2013-03-27T09:35:54Z</time>
      </trkpt>
      <trkpt lat="46.2830760050565" lon="8.067166982218623">
        <ele>2232.3198240000002</ele>
        <time>2013-03-27T09:36:07Z</time>
      </trkpt>
      <trkpt lat="46.283144988119602" lon="8.067306037992239">
        <ele>2234.23999</ele>
        <time>2013-03-27T09:36:23Z</time>
      </trkpt>
      <trkpt lat="46.283088997006416" lon="8.067402010783553">
        <ele>2236.1599120000001</ele>
        <time>2013-03-27T09:36:39Z</time>
      </trkpt>
      <trkpt lat="46.282993024215102" lon="8.067364962771535">
        <ele>2237.1301269999999</ele>
        <time>2013-03-27T09:37:05Z</time>
      </trkpt>
      <trkpt lat="46.282930998131633" lon="8.067344008013606">
        <ele>2236.1599120000001</ele>
        <time>2013-03-27T09:38:31Z</time>
      </trkpt>
      <trkpt lat="46.282938960939646" lon="8.067334033548832">
        <ele>2236.639893</ele>
        <time>2013-03-27T09:39:18Z</time>
      </trkpt>
      <trkpt lat="46.282890010625124" lon="8.067445009946823">
        <ele>2239.530029</ele>
        <time>2013-03-27T09:47:15Z</time>
      </trkpt>
      <trkpt lat="46.282844999805093" lon="8.067562021315098">
        <ele>2240.48999</ele>
        <time>2013-03-27T09:47:32Z</time>
      </trkpt>
      <trkpt lat="46.28286000341177" lon="8.067643996328116">
        <ele>2243.8498540000001</ele>
        <time>2013-03-27T09:47:39Z</time>
      </trkpt>
      <trkpt lat="46.28286100924015" lon="8.067757990211248">
        <ele>2246.26001</ele>
        <time>2013-03-27T09:47:57Z</time>
      </trkpt>
      <trkpt lat="46.282886993139982" lon="8.067900985479355">
        <ele>2249.6201169999999</ele>
        <time>2013-03-27T09:48:17Z</time>
      </trkpt>
      <trkpt lat="46.282924041152" lon="8.068034006282687">
        <ele>2252.51001</ele>
        <time>2013-03-27T09:48:36Z</time>
      </trkpt>
      <trkpt lat="46.282908031716943" lon="8.068196028470993">
        <ele>2254.9099120000001</ele>
        <time>2013-03-27T09:48:59Z</time>
      </trkpt>
      <trkpt lat="46.282886993139982" lon="8.068322008475661">
        <ele>2257.790039</ele>
        <time>2013-03-27T09:49:17Z</time>
      </trkpt>
      <trkpt lat="46.282865032553673" lon="8.068359978497028">
        <ele>2259.23999</ele>
        <time>2013-03-27T09:49:25Z</time>
      </trkpt>
      <trkpt lat="46.282794959843159" lon="8.068307004868984">
        <ele>2260.679932</ele>
        <time>2013-03-27T09:49:40Z</time>
      </trkpt>
      <trkpt lat="46.28273201175034" lon="8.068268029019237">
        <ele>2261.1599120000001</ele>
        <time>2013-03-27T09:49:58Z</time>
      </trkpt>
      <trkpt lat="46.282653976231813" lon="8.068228969350457">
        <ele>2264.040039</ele>
        <time>2013-03-27T09:50:19Z</time>
      </trkpt>
      <trkpt lat="46.282566972076893" lon="8.068134002387524">
        <ele>2265.4799800000001</ele>
        <time>2013-03-27T09:50:46Z</time>
      </trkpt>
      <trkpt lat="46.28249698318541" lon="8.068092009052634">
        <ele>2269.330078</ele>
        <time>2013-03-27T09:51:05Z</time>
      </trkpt>
      <trkpt lat="46.282377960160375" lon="8.06808396242559">
        <ele>2272.6899410000001</ele>
        <time>2013-03-27T09:51:38Z</time>
      </trkpt>
      <trkpt lat="46.282337978482246" lon="8.068000981584191">
        <ele>2274.1401369999999</ele>
        <time>2013-03-27T09:51:56Z</time>
      </trkpt>
      <trkpt lat="46.282289028167725" lon="8.067925963550806">
        <ele>2275.5798340000001</ele>
        <time>2013-03-27T09:52:09Z</time>
      </trkpt>
      <trkpt lat="46.282228007912636" lon="8.067902997136116">
        <ele>2277.0200199999999</ele>
        <time>2013-03-27T09:52:25Z</time>
      </trkpt>
      <trkpt lat="46.282199006527662" lon="8.067882964387536">
        <ele>2277.9799800000001</ele>
        <time>2013-03-27T09:52:47Z</time>
      </trkpt>
      <trkpt lat="46.282114014029503" lon="8.067813981324434">
        <ele>2277.9799800000001</ele>
        <time>2013-03-27T09:53:18Z</time>
      </trkpt>
      <trkpt lat="46.282075960189104" lon="8.06778003461659">
        <ele>2280.8701169999999</ele>
        <time>2013-03-27T09:53:26Z</time>
      </trkpt>
      <trkpt lat="46.281981999054551" lon="8.067733012139797">
        <ele>2281.830078</ele>
        <time>2013-03-27T09:53:42Z</time>
      </trkpt>
      <trkpt lat="46.281903963536024" lon="8.067704010754824">
        <ele>2282.3100589999999</ele>
        <time>2013-03-27T09:54:15Z</time>
      </trkpt>
      <trkpt lat="46.281791981309652" lon="8.067661011591554">
        <ele>2285.1899410000001</ele>
        <time>2013-03-27T09:54:35Z</time>
      </trkpt>
      <trkpt lat="46.281730039045215" lon="8.067666040733457">
        <ele>2287.1098630000001</ele>
        <time>2013-03-27T09:54:58Z</time>
      </trkpt>
      <trkpt lat="46.28165896050632" lon="8.067689007148147">
        <ele>2289.040039</ele>
        <time>2013-03-27T09:55:28Z</time>
      </trkpt>
      <trkpt lat="46.281654015183449" lon="8.067698981612921">
        <ele>2292.4001459999999</ele>
        <time>2013-03-27T09:55:29Z</time>
      </trkpt>
      <trkpt lat="46.281594000756741" lon="8.06767500936985">
        <ele>2294.8000489999999</ele>
        <time>2013-03-27T09:55:47Z</time>
      </trkpt>
      <trkpt lat="46.281577991321683" lon="8.067688001319766">
        <ele>2298.169922</ele>
        <time>2013-03-27T09:56:00Z</time>
      </trkpt>
      <trkpt lat="46.281529041007161" lon="8.067749021574855">
        <ele>2299.610107</ele>
        <time>2013-03-27T09:56:15Z</time>
      </trkpt>
      <trkpt lat="46.281480006873608" lon="8.067828984931111">
        <ele>2302.9799800000001</ele>
        <time>2013-03-27T09:56:33Z</time>
      </trkpt>
      <trkpt lat="46.281481012701988" lon="8.067829990759492">
        <ele>2302.48999</ele>
        <time>2013-03-27T09:56:34Z</time>
      </trkpt>
      <trkpt lat="46.281455028802156" lon="8.067870978266001">
        <ele>2304.8999020000001</ele>
        <time>2013-03-27T09:56:48Z</time>
      </trkpt>
      <trkpt lat="46.281414963304996" lon="8.067877013236284">
        <ele>2308.26001</ele>
        <time>2013-03-27T09:57:01Z</time>
      </trkpt>
      <trkpt lat="46.281360983848572" lon="8.067973991855979">
        <ele>2310.1899410000001</ele>
        <time>2013-03-27T09:57:25Z</time>
      </trkpt>
      <trkpt lat="46.281327959150076" lon="8.068035012111068">
        <ele>2313.5500489999999</ele>
        <time>2013-03-27T09:57:40Z</time>
      </trkpt>
      <trkpt lat="46.281280014663935" lon="8.068166021257639">
        <ele>2314.51001</ele>
        <time>2013-03-27T09:57:59Z</time>
      </trkpt>
      <trkpt lat="46.281241038814187" lon="8.068200973793864">
        <ele>2317.4001459999999</ele>
        <time>2013-03-27T09:58:09Z</time>
      </trkpt>
      <trkpt lat="46.281218994408846" lon="8.068224024027586">
        <ele>2320.280029</ele>
        <time>2013-03-27T09:58:29Z</time>
      </trkpt>
      <trkpt lat="46.28114297054708" lon="8.068259982392192">
        <ele>2323.1599120000001</ele>
        <time>2013-03-27T09:58:48Z</time>
      </trkpt>
      <trkpt lat="46.281097959727049" lon="8.068261994048953">
        <ele>2326.0500489999999</ele>
        <time>2013-03-27T09:59:04Z</time>
      </trkpt>
      <trkpt lat="46.281081028282642" lon="8.06829996407032">
        <ele>2328.9301759999998</ele>
        <time>2013-03-27T09:59:22Z</time>
      </trkpt>
      <trkpt lat="46.281029982492328" lon="8.068308010697365">
        <ele>2331.330078</ele>
        <time>2013-03-27T09:59:42Z</time>
      </trkpt>
      <trkpt lat="46.280936021357775" lon="8.068355033174157">
        <ele>2333.26001</ele>
        <time>2013-03-27T10:00:01Z</time>
      </trkpt>
      <trkpt lat="46.280790008604527" lon="8.068408006802201">
        <ele>2334.219971</ele>
        <time>2013-03-27T10:00:28Z</time>
      </trkpt>
      <trkpt lat="46.280734017491341" lon="8.068433990702033">
        <ele>2335.179932</ele>
        <time>2013-03-27T10:00:51Z</time>
      </trkpt>
      <trkpt lat="46.280576018616557" lon="8.068532980978489">
        <ele>2335.179932</ele>
        <time>2013-03-27T10:01:11Z</time>
      </trkpt>
      <trkpt lat="46.280477028340101" lon="8.068592995405197">
        <ele>2335.6599120000001</ele>
        <time>2013-03-27T10:01:27Z</time>
      </trkpt>
      <trkpt lat="46.280388012528419" lon="8.068626020103693">
        <ele>2336.6201169999999</ele>
        <time>2013-03-27T10:01:41Z</time>
      </trkpt>
      <trkpt lat="46.280300002545118" lon="8.068690979853272">
        <ele>2337.1000979999999</ele>
        <time>2013-03-27T10:01:53Z</time>
      </trkpt>
      <trkpt lat="46.280226996168494" lon="8.06872601620853">
        <ele>2338.540039</ele>
        <time>2013-03-27T10:02:08Z</time>
      </trkpt>
      <trkpt lat="46.280177040025592" lon="8.068771027028561">
        <ele>2341.429932</ele>
        <time>2013-03-27T10:02:25Z</time>
      </trkpt>
      <trkpt lat="46.280149966478348" lon="8.068759040907025">
        <ele>2342.389893</ele>
        <time>2013-03-27T10:02:30Z</time>
      </trkpt>
      <trkpt lat="46.280093975365162" lon="8.068760968744755">
        <ele>2345.75</ele>
        <time>2013-03-27T10:02:45Z</time>
      </trkpt>
      <trkpt lat="46.280020968988538" lon="8.068767003715038">
        <ele>2348.1599120000001</ele>
        <time>2013-03-27T10:03:02Z</time>
      </trkpt>
      <trkpt lat="46.279966989532113" lon="8.068783013150096">
        <ele>2350.5600589999999</ele>
        <time>2013-03-27T10:03:13Z</time>
      </trkpt>
      <trkpt lat="46.279904041439295" lon="8.068744959309697">
        <ele>2351.040039</ele>
        <time>2013-03-27T10:03:27Z</time>
      </trkpt>
      <trkpt lat="46.279844027012587" lon="8.0687499884516">
        <ele>2353.9301759999998</ele>
        <time>2013-03-27T10:03:43Z</time>
      </trkpt>
      <trkpt lat="46.279748976230621" lon="8.068845961242914">
        <ele>2354.889893</ele>
        <time>2013-03-27T10:03:59Z</time>
      </trkpt>
      <trkpt lat="46.279736990109086" lon="8.068863982334733">
        <ele>2356.8100589999999</ele>
        <time>2013-03-27T10:04:01Z</time>
      </trkpt>
      <trkpt lat="46.279650991782546" lon="8.068931037560105">
        <ele>2357.7700199999999</ele>
        <time>2013-03-27T10:04:17Z</time>
      </trkpt>
      <trkpt lat="46.279611010104418" lon="8.068991973996162">
        <ele>2358.7299800000001</ele>
        <time>2013-03-27T10:04:30Z</time>
      </trkpt>
      <trkpt lat="46.279519982635975" lon="8.069115020334721">
        <ele>2358.7299800000001</ele>
        <time>2013-03-27T10:04:48Z</time>
      </trkpt>
      <trkpt lat="46.279386039823294" lon="8.069225996732712">
        <ele>2360.169922</ele>
        <time>2013-03-27T10:05:06Z</time>
      </trkpt>
      <trkpt lat="46.27931697294116" lon="8.069296991452575">
        <ele>2361.6201169999999</ele>
        <time>2013-03-27T10:05:23Z</time>
      </trkpt>
      <trkpt lat="46.279262993484735" lon="8.069330016151071">
        <ele>2364.9799800000001</ele>
        <time>2013-03-27T10:05:32Z</time>
      </trkpt>
      <trkpt lat="46.279205996543169" lon="8.069346025586128">
        <ele>2364.9799800000001</ele>
        <time>2013-03-27T10:05:44Z</time>
      </trkpt>
      <trkpt lat="46.279140030965209" lon="8.069365974515677">
        <ele>2367.8598630000001</ele>
        <time>2013-03-27T10:05:54Z</time>
      </trkpt>
      <trkpt lat="46.279083034023643" lon="8.069339990615845">
        <ele>2370.75</ele>
        <time>2013-03-27T10:06:11Z</time>
      </trkpt>
      <trkpt lat="46.279046991840005" lon="8.069371003657579">
        <ele>2370.2700199999999</ele>
        <time>2013-03-27T10:06:15Z</time>
      </trkpt>
      <trkpt lat="46.279030982404947" lon="8.069414002820849">
        <ele>2369.790039</ele>
        <time>2013-03-27T10:06:17Z</time>
      </trkpt>
      <trkpt lat="46.27894900739193" lon="8.069538976997137">
        <ele>2368.830078</ele>
        <time>2013-03-27T10:06:31Z</time>
      </trkpt>
      <trkpt lat="46.278790002688766" lon="8.069704016670585">
        <ele>2368.3500979999999</ele>
        <time>2013-03-27T10:06:52Z</time>
      </trkpt>
      <trkpt lat="46.278710039332509" lon="8.069767970591784">
        <ele>2371.709961</ele>
        <time>2013-03-27T10:07:07Z</time>
      </trkpt>
      <trkpt lat="46.278673997148871" lon="8.06980200111866">
        <ele>2371.709961</ele>
        <time>2013-03-27T10:07:14Z</time>
      </trkpt>
      <trkpt lat="46.278614988550544" lon="8.069834019988775">
        <ele>2373.6298830000001</ele>
        <time>2013-03-27T10:07:22Z</time>
      </trkpt>
      <trkpt lat="46.278524966910481" lon="8.069876013323665">
        <ele>2375.5500489999999</ele>
        <time>2013-03-27T10:07:37Z</time>
      </trkpt>
      <trkpt lat="46.278467969968915" lon="8.069866038858891">
        <ele>2377.959961</ele>
        <time>2013-03-27T10:07:52Z</time>
      </trkpt>
      <trkpt lat="46.27839001826942" lon="8.069895040243864">
        <ele>2379.4001459999999</ele>
        <time>2013-03-27T10:08:10Z</time>
      </trkpt>
      <trkpt lat="46.278323968872428" lon="8.069883976131678">
        <ele>2382.76001</ele>
        <time>2013-03-27T10:08:23Z</time>
      </trkpt>
      <trkpt lat="46.278242999687791" lon="8.069934016093612">
        <ele>2385.6499020000001</ele>
        <time>2013-03-27T10:08:43Z</time>
      </trkpt>
      <trkpt lat="46.278146021068096" lon="8.069933010265231">
        <ele>2387.0900879999999</ele>
        <time>2013-03-27T10:09:02Z</time>
      </trkpt>
      <trkpt lat="46.278103021904826" lon="8.069917000830174">
        <ele>2389.969971</ele>
        <time>2013-03-27T10:09:12Z</time>
      </trkpt>
      <trkpt lat="46.278055999428034" lon="8.069866960868239">
        <ele>2390.9399410000001</ele>
        <time>2013-03-27T10:09:26Z</time>
      </trkpt>
      <trkpt lat="46.278022974729538" lon="8.069815998896956">
        <ele>2394.3000489999999</ele>
        <time>2013-03-27T10:09:37Z</time>
      </trkpt>
      <trkpt lat="46.277986010536551" lon="8.069772999733686">
        <ele>2395.26001</ele>
        <time>2013-03-27T10:09:52Z</time>
      </trkpt>
      <trkpt lat="46.277951980009675" lon="8.069747015833855">
        <ele>2396.6999510000001</ele>
        <time>2013-03-27T10:10:09Z</time>
      </trkpt>
      <trkpt lat="46.27791996113956" lon="8.069762019440532">
        <ele>2398.1501459999999</ele>
        <time>2013-03-27T10:10:23Z</time>
      </trkpt>
      <trkpt lat="46.27785500138998" lon="8.069808036088944">
        <ele>2400.5500489999999</ele>
        <time>2013-03-27T10:10:49Z</time>
      </trkpt>
      <trkpt lat="46.277833040803671" lon="8.069775011390448">
        <ele>2402.469971</ele>
        <time>2013-03-27T10:11:10Z</time>
      </trkpt>
      <trkpt lat="46.277824994176626" lon="8.069768976420164">
        <ele>2403.9099120000001</ele>
        <time>2013-03-27T10:11:55Z</time>
      </trkpt>
      <trkpt lat="46.277773026376963" lon="8.069778028875589">
        <ele>2406.8000489999999</ele>
        <time>2013-03-27T10:12:09Z</time>
      </trkpt>
      <trkpt lat="46.27772499807179" lon="8.069799989461899">
        <ele>2410.1599120000001</ele>
        <time>2013-03-27T10:12:29Z</time>
      </trkpt>
      <trkpt lat="46.277630031108856" lon="8.069826979190111">
        <ele>2413.530029</ele>
        <time>2013-03-27T10:12:47Z</time>
      </trkpt>
      <trkpt lat="46.27755400724709" lon="8.069883976131678">
        <ele>2416.8901369999999</ele>
        <time>2013-03-27T10:13:04Z</time>
      </trkpt>
      <trkpt lat="46.277517965063453" lon="8.069889005273581">
        <ele>2419.3000489999999</ele>
        <time>2013-03-27T10:13:20Z</time>
      </trkpt>
      <trkpt lat="46.277522994205356" lon="8.0698879994452">
        <ele>2420.73999</ele>
        <time>2013-03-27T10:13:46Z</time>
      </trkpt>
      <trkpt lat="46.277500027790666" lon="8.069901997223496">
        <ele>2420.26001</ele>
        <time>2013-03-27T10:15:06Z</time>
      </trkpt>
      <trkpt lat="46.277501033619046" lon="8.069900991395116">
        <ele>2420.26001</ele>
        <time>2013-03-27T10:16:15Z</time>
      </trkpt>
      <trkpt lat="46.277544032782316" lon="8.069884981960058">
        <ele>2419.780029</ele>
        <time>2013-03-27T10:16:54Z</time>
      </trkpt>
      <trkpt lat="46.277502039447427" lon="8.069915995001793">
        <ele>2420.26001</ele>
        <time>2013-03-27T10:19:06Z</time>
      </trkpt>
      <trkpt lat="46.277521988376975" lon="8.069880958646536">
        <ele>2417.8498540000001</ele>
        <time>2013-03-27T10:19:34Z</time>
      </trkpt>
      <trkpt lat="46.27757697366178" lon="8.069846006110311">
        <ele>2416.4101559999999</ele>
        <time>2013-03-27T10:19:49Z</time>
      </trkpt>
      <trkpt lat="46.277609998360276" lon="8.069823039695621">
        <ele>2414.48999</ele>
        <time>2013-03-27T10:20:02Z</time>
      </trkpt>
      <trkpt lat="46.277635982260108" lon="8.069805018603802">
        <ele>2413.530029</ele>
        <time>2013-03-27T10:20:05Z</time>
      </trkpt>
      <trkpt lat="46.277699014171958" lon="8.069732012227178">
        <ele>2410.1599120000001</ele>
        <time>2013-03-27T10:20:17Z</time>
      </trkpt>
      <trkpt lat="46.277749976143241" lon="8.069697981700301">
        <ele>2406.8000489999999</ele>
        <time>2013-03-27T10:20:30Z</time>
      </trkpt>
      <trkpt lat="46.277809990569949" lon="8.069688007235527">
        <ele>2403.429932</ele>
        <time>2013-03-27T10:20:46Z</time>
      </trkpt>
      <trkpt lat="46.277852989733219" lon="8.069683983922005">
        <ele>2400.070068</ele>
        <time>2013-03-27T10:21:00Z</time>
      </trkpt>
      <trkpt lat="46.277861958369613" lon="8.069680966436863">
        <ele>2399.5898440000001</ele>
        <time>2013-03-27T10:21:02Z</time>
      </trkpt>
      <trkpt lat="46.277904035523534" lon="8.069699993357062">
        <ele>2396.219971</ele>
        <time>2013-03-27T10:21:17Z</time>
      </trkpt>
      <trkpt lat="46.277930019423366" lon="8.069748021662235">
        <ele>2392.8598630000001</ele>
        <time>2013-03-27T10:21:33Z</time>
      </trkpt>
      <trkpt lat="46.278045019134879" lon="8.069810969755054">
        <ele>2389.48999</ele>
        <time>2013-03-27T10:21:48Z</time>
      </trkpt>
      <trkpt lat="46.27802699804306" lon="8.069842988625169">
        <ele>2389.48999</ele>
        <time>2013-03-27T10:22:22Z</time>
      </trkpt>
      <trkpt lat="46.278075026348233" lon="8.069839971140027">
        <ele>2385.6499020000001</ele>
        <time>2013-03-27T10:24:23Z</time>
      </trkpt>
      <trkpt lat="46.278226990252733" lon="8.069835025817156">
        <ele>2383.25</ele>
        <time>2013-03-27T10:24:34Z</time>
      </trkpt>
      <trkpt lat="46.27830502577126" lon="8.069812981411815">
        <ele>2380.8400879999999</ele>
        <time>2013-03-27T10:24:50Z</time>
      </trkpt>
      <trkpt lat="46.278410973027349" lon="8.069812981411815">
        <ele>2377.4799800000001</ele>
        <time>2013-03-27T10:25:01Z</time>
      </trkpt>
      <trkpt lat="46.278436034917831" lon="8.069814993068576">
        <ele>2376.5200199999999</ele>
        <time>2013-03-27T10:25:04Z</time>
      </trkpt>
      <trkpt lat="46.278531001880765" lon="8.069804012775421">
        <ele>2373.6298830000001</ele>
        <time>2013-03-27T10:25:14Z</time>
      </trkpt>
      <trkpt lat="46.27862898632884" lon="8.06977903470397">
        <ele>2370.2700199999999</ele>
        <time>2013-03-27T10:25:24Z</time>
      </trkpt>
      <trkpt lat="46.278725964948535" lon="8.069713991135359">
        <ele>2368.830078</ele>
        <time>2013-03-27T10:25:38Z</time>
      </trkpt>
      <trkpt lat="46.278812969103456" lon="8.069565966725349">
        <ele>2369.3100589999999</ele>
        <time>2013-03-27T10:26:51Z</time>
      </trkpt>
      <trkpt lat="46.278822021558881" lon="8.069555992260575">
        <ele>2365.459961</ele>
        <time>2013-03-27T10:26:52Z</time>
      </trkpt>
      <trkpt lat="46.278828978538513" lon="8.069541994482279">
        <ele>2365.459961</ele>
        <time>2013-03-27T10:26:53Z</time>
      </trkpt>
      <trkpt lat="46.278838030993938" lon="8.069533025845885">
        <ele>2365.9399410000001</ele>
        <time>2013-03-27T10:26:54Z</time>
      </trkpt>
      <trkpt lat="46.278931992128491" lon="8.069459013640881">
        <ele>2365.459961</ele>
        <time>2013-03-27T10:27:05Z</time>
      </trkpt>
      <trkpt lat="46.278989994898438" lon="8.069392964243889">
        <ele>2365.459961</ele>
        <time>2013-03-27T10:27:11Z</time>
      </trkpt>
      <trkpt lat="46.279095020145178" lon="8.069302020594478">
        <ele>2366.419922</ele>
        <time>2013-03-27T10:27:25Z</time>
      </trkpt>
      <trkpt lat="46.279139025136828" lon="8.069293973967433">
        <ele>2364.9799800000001</ele>
        <time>2013-03-27T10:27:33Z</time>
      </trkpt>
      <trkpt lat="46.279221000149846" lon="8.069262960925698">
        <ele>2362.580078</ele>
        <time>2013-03-27T10:27:42Z</time>
      </trkpt>
      <trkpt lat="46.279297024011612" lon="8.069241000339389">
        <ele>2360.169922</ele>
        <time>2013-03-27T10:27:58Z</time>
      </trkpt>
      <trkpt lat="46.279332982376218" lon="8.069338984787464">
        <ele>2360.169922</ele>
        <time>2013-03-27T10:28:13Z</time>
      </trkpt>
      <trkpt lat="46.279349997639656" lon="8.069275030866265">
        <ele>2358.7299800000001</ele>
        <time>2013-03-27T10:28:21Z</time>
      </trkpt>
      <trkpt lat="46.279482012614608" lon="8.069106973707676">
        <ele>2355.8498540000001</ele>
        <time>2013-03-27T10:28:37Z</time>
      </trkpt>
      <trkpt lat="46.279493998736143" lon="8.069089958444238">
        <ele>2355.3698730000001</ele>
        <time>2013-03-27T10:28:39Z</time>
      </trkpt>
      <trkpt lat="46.279516965150833" lon="8.069064980372787">
        <ele>2355.3698730000001</ele>
        <time>2013-03-27T10:28:41Z</time>
      </trkpt>
      <trkpt lat="46.279639005661011" lon="8.068862976506352">
        <ele>2353.9301759999998</ele>
        <time>2013-03-27T10:28:57Z</time>
      </trkpt>
      <trkpt lat="46.279778983443975" lon="8.06870598345995">
        <ele>2352</ele>
        <time>2013-03-27T10:29:12Z</time>
      </trkpt>
      <trkpt lat="46.279892977327108" lon="8.068652004003525">
        <ele>2349.1198730000001</ele>
        <time>2013-03-27T10:29:26Z</time>
      </trkpt>
      <trkpt lat="46.279963972046971" lon="8.068688968196511">
        <ele>2346.2299800000001</ele>
        <time>2013-03-27T10:29:36Z</time>
      </trkpt>
      <trkpt lat="46.280065979808569" lon="8.068686034530401">
        <ele>2342.8701169999999</ele>
        <time>2013-03-27T10:29:48Z</time>
      </trkpt>
      <trkpt lat="46.2801300175488" lon="8.068695003166795">
        <ele>2339.51001</ele>
        <time>2013-03-27T10:29:57Z</time>
      </trkpt>
      <trkpt lat="46.280220039188862" lon="8.068666001781821">
        <ele>2336.1401369999999</ele>
        <time>2013-03-27T10:30:05Z</time>
      </trkpt>
      <trkpt lat="46.280229007825255" lon="8.068661978468299">
        <ele>2336.1401369999999</ele>
        <time>2013-03-27T10:30:06Z</time>
      </trkpt>
      <trkpt lat="46.280300002545118" lon="8.068644041195512">
        <ele>2333.73999</ele>
        <time>2013-03-27T10:30:12Z</time>
      </trkpt>
      <trkpt lat="46.28036898560822" lon="8.068626020103693">
        <ele>2333.26001</ele>
        <time>2013-03-27T10:30:33Z</time>
      </trkpt>
      <trkpt lat="46.280485996976495" lon="8.068502973765135">
        <ele>2331.330078</ele>
        <time>2013-03-27T10:30:51Z</time>
      </trkpt>
      <trkpt lat="46.280600996688008" lon="8.068433990702033">
        <ele>2331.330078</ele>
        <time>2013-03-27T10:31:05Z</time>
      </trkpt>
      <trkpt lat="46.280739968642592" lon="8.068399038165808">
        <ele>2330.8498540000001</ele>
        <time>2013-03-27T10:31:19Z</time>
      </trkpt>
      <trkpt lat="46.280805012211204" lon="8.068353021517396">
        <ele>2330.3698730000001</ele>
        <time>2013-03-27T10:31:34Z</time>
      </trkpt>
      <trkpt lat="46.280896961688995" lon="8.068341035395861">
        <ele>2329.4101559999999</ele>
        <time>2013-03-27T10:31:50Z</time>
      </trkpt>
      <trkpt lat="46.281010033562779" lon="8.068303987383843">
        <ele>2327.01001</ele>
        <time>2013-03-27T10:32:36Z</time>
      </trkpt>
      <trkpt lat="46.281089996919036" lon="8.068239027634263">
        <ele>2323.639893</ele>
        <time>2013-03-27T10:32:48Z</time>
      </trkpt>
      <trkpt lat="46.281131990253925" lon="8.068177001550794">
        <ele>2320.76001</ele>
        <time>2013-03-27T10:32:58Z</time>
      </trkpt>
      <trkpt lat="46.281177001073956" lon="8.068169038742781">
        <ele>2317.8801269999999</ele>
        <time>2013-03-27T10:33:06Z</time>
      </trkpt>
      <trkpt lat="46.281230980530381" lon="8.068112041801214">
        <ele>2314.51001</ele>
        <time>2013-03-27T10:33:17Z</time>
      </trkpt>
      <trkpt lat="46.28127196803689" lon="8.068055966868997">
        <ele>2311.1499020000001</ele>
        <time>2013-03-27T10:33:35Z</time>
      </trkpt>
      <trkpt lat="46.281290994957089" lon="8.068023025989533">
        <ele>2310.1899410000001</ele>
        <time>2013-03-27T10:33:39Z</time>
      </trkpt>
      <trkpt lat="46.281345980241895" lon="8.067935016006231">
        <ele>2306.820068</ele>
        <time>2013-03-27T10:33:49Z</time>
      </trkpt>
      <trkpt lat="46.281399959698319" lon="8.067859997972846">
        <ele>2304.419922</ele>
        <time>2013-03-27T10:33:58Z</time>
      </trkpt>
      <trkpt lat="46.281461985781789" lon="8.067795960232616">
        <ele>2301.0500489999999</ele>
        <time>2013-03-27T10:34:08Z</time>
      </trkpt>
      <trkpt lat="46.281505990773439" lon="8.06773996911943">
        <ele>2297.6899410000001</ele>
        <time>2013-03-27T10:34:18Z</time>
      </trkpt>
      <trkpt lat="46.281561981886625" lon="8.067664029076695">
        <ele>2294.3198240000002</ele>
        <time>2013-03-27T10:34:29Z</time>
      </trkpt>
      <trkpt lat="46.281606992706656" lon="8.067608959972858">
        <ele>2290.959961</ele>
        <time>2013-03-27T10:34:40Z</time>
      </trkpt>
      <trkpt lat="46.281647980213165" lon="8.067597979679704">
        <ele>2288.5600589999999</ele>
        <time>2013-03-27T10:34:49Z</time>
      </trkpt>
      <trkpt lat="46.281711012125015" lon="8.067594040185213">
        <ele>2285.1899410000001</ele>
        <time>2013-03-27T10:35:00Z</time>
      </trkpt>
      <trkpt lat="46.281765997409821" lon="8.067518016323447">
        <ele>2282.3100589999999</ele>
        <time>2013-03-27T10:35:12Z</time>
      </trkpt>
      <trkpt lat="46.281761974096298" lon="8.067535031586886">
        <ele>2280.8701169999999</ele>
        <time>2013-03-27T10:35:44Z</time>
      </trkpt>
      <trkpt lat="46.281789969652891" lon="8.067508963868022">
        <ele>2277.5</ele>
        <time>2013-03-27T10:37:22Z</time>
      </trkpt>
      <trkpt lat="46.281866999343038" lon="8.067407961934805">
        <ele>2274.6201169999999</ele>
        <time>2013-03-27T10:37:35Z</time>
      </trkpt>
      <trkpt lat="46.281932964920998" lon="8.067318024113774">
        <ele>2271.25</ele>
        <time>2013-03-27T10:37:46Z</time>
      </trkpt>
      <trkpt lat="46.281981999054551" lon="8.067248035222292">
        <ele>2268.3698730000001</ele>
        <time>2013-03-27T10:37:56Z</time>
      </trkpt>
      <trkpt lat="46.282026004046202" lon="8.067187014967203">
        <ele>2265</ele>
        <time>2013-03-27T10:38:08Z</time>
      </trkpt>
      <trkpt lat="46.282031033188105" lon="8.067131023854017">
        <ele>2261.639893</ele>
        <time>2013-03-27T10:38:21Z</time>
      </trkpt>
      <trkpt lat="46.282037990167737" lon="8.067110991105437">
        <ele>2258.75</ele>
        <time>2013-03-27T10:38:38Z</time>
      </trkpt>
      <trkpt lat="46.282058022916317" lon="8.067053994163871">
        <ele>2255.3901369999999</ele>
        <time>2013-03-27T10:38:51Z</time>
      </trkpt>
      <trkpt lat="46.28206598572433" lon="8.066985011100769">
        <ele>2252.030029</ele>
        <time>2013-03-27T10:39:09Z</time>
      </trkpt>
      <trkpt lat="46.282110996544361" lon="8.066893983632326">
        <ele>2248.179932</ele>
        <time>2013-03-27T10:39:25Z</time>
      </trkpt>
      <trkpt lat="46.282128011807799" lon="8.066850984469056">
        <ele>2247.219971</ele>
        <time>2013-03-27T10:39:47Z</time>
      </trkpt>
      <trkpt lat="46.282107979059219" lon="8.066825000569224">
        <ele>2245.3000489999999</ele>
        <time>2013-03-27T10:40:37Z</time>
      </trkpt>
      <trkpt lat="46.282130023464561" lon="8.066777978092432">
        <ele>2242.4099120000001</ele>
        <time>2013-03-27T10:40:45Z</time>
      </trkpt>
      <trkpt lat="46.282170005142689" lon="8.066730033606291">
        <ele>2239.0500489999999</ele>
        <time>2013-03-27T10:40:53Z</time>
      </trkpt>
      <trkpt lat="46.282211998477578" lon="8.06668602861464">
        <ele>2235.679932</ele>
        <time>2013-03-27T10:41:01Z</time>
      </trkpt>
      <trkpt lat="46.282217027619481" lon="8.066678987815976">
        <ele>2236.1599120000001</ele>
        <time>2013-03-27T10:41:02Z</time>
      </trkpt>
      <trkpt lat="46.282229013741016" lon="8.066653003916144">
        <ele>2233.280029</ele>
        <time>2013-03-27T10:41:14Z</time>
      </trkpt>
      <trkpt lat="46.282254997640848" lon="8.066601036116481">
        <ele>2229.429932</ele>
        <time>2013-03-27T10:41:37Z</time>
      </trkpt>
      <trkpt lat="46.282283999025822" lon="8.066546972841024">
        <ele>2225.5900879999999</ele>
        <time>2013-03-27T10:41:48Z</time>
      </trkpt>
      <trkpt lat="46.282310988754034" lon="8.066511014476419">
        <ele>2223.669922</ele>
        <time>2013-03-27T10:41:54Z</time>
      </trkpt>
      <trkpt lat="46.282337978482246" lon="8.066453011706471">
        <ele>2220.3000489999999</ele>
        <time>2013-03-27T10:42:01Z</time>
      </trkpt>
      <trkpt lat="46.282376032322645" lon="8.066386040300131">
        <ele>2217.8999020000001</ele>
        <time>2013-03-27T10:42:09Z</time>
      </trkpt>
      <trkpt lat="46.282400004565716" lon="8.06632099673152">
        <ele>2214.530029</ele>
        <time>2013-03-27T10:42:16Z</time>
      </trkpt>
      <trkpt lat="46.282429005950689" lon="8.066271040588617">
        <ele>2211.6499020000001</ele>
        <time>2013-03-27T10:42:24Z</time>
      </trkpt>
      <trkpt lat="46.282459013164043" lon="8.066196022555232">
        <ele>2207.8100589999999</ele>
        <time>2013-03-27T10:42:31Z</time>
      </trkpt>
      <trkpt lat="46.282463036477566" lon="8.066182024776936">
        <ele>2208.290039</ele>
        <time>2013-03-27T10:42:32Z</time>
      </trkpt>
      <trkpt lat="46.282503018155694" lon="8.066090997308493">
        <ele>2204.4399410000001</ele>
        <time>2013-03-27T10:42:43Z</time>
      </trkpt>
      <trkpt lat="46.282521039247513" lon="8.06599703617394">
        <ele>2202.5200199999999</ele>
        <time>2013-03-27T10:43:11Z</time>
      </trkpt>
      <trkpt lat="46.282529002055526" lon="8.066082028672099">
        <ele>2201.5600589999999</ele>
        <time>2013-03-27T10:46:15Z</time>
      </trkpt>
      <trkpt lat="46.282619023695588" lon="8.066100971773267">
        <ele>2198.1901859999998</ele>
        <time>2013-03-27T10:47:40Z</time>
      </trkpt>
      <trkpt lat="46.282592033967376" lon="8.066049003973603">
        <ele>2195.790039</ele>
        <time>2013-03-27T10:47:49Z</time>
      </trkpt>
      <trkpt lat="46.282533025369048" lon="8.065906008705497">
        <ele>2192.419922</ele>
        <time>2013-03-27T10:48:01Z</time>
      </trkpt>
      <trkpt lat="46.282455995678902" lon="8.065724959596992">
        <ele>2188.5798340000001</ele>
        <time>2013-03-27T10:48:14Z</time>
      </trkpt>
      <trkpt lat="46.282424982637167" lon="8.065560003742576">
        <ele>2185.209961</ele>
        <time>2013-03-27T10:48:28Z</time>
      </trkpt>
      <trkpt lat="46.282371003180742" lon="8.065448021516204">
        <ele>2182.330078</ele>
        <time>2013-03-27T10:48:39Z</time>
      </trkpt>
      <trkpt lat="46.282272012904286" lon="8.065322041511536">
        <ele>2178.969971</ele>
        <time>2013-03-27T10:48:54Z</time>
      </trkpt>
      <trkpt lat="46.282203029841185" lon="8.065279964357615">
        <ele>2176.5600589999999</ele>
        <time>2013-03-27T10:49:12Z</time>
      </trkpt>
      <trkpt lat="46.282153995707631" lon="8.065195977687836">
        <ele>2174.639893</ele>
        <time>2013-03-27T10:49:35Z</time>
      </trkpt>
      <trkpt lat="46.28208601847291" lon="8.065135041251779">
        <ele>2171.2700199999999</ele>
        <time>2013-03-27T10:49:47Z</time>
      </trkpt>
      <trkpt lat="46.282032039016485" lon="8.065083995461464">
        <ele>2168.3901369999999</ele>
        <time>2013-03-27T10:50:08Z</time>
      </trkpt>
      <trkpt lat="46.281985016539693" lon="8.065004032105207">
        <ele>2165.030029</ele>
        <time>2013-03-27T10:50:19Z</time>
      </trkpt>
      <trkpt lat="46.281951991841197" lon="8.06496798992157">
        <ele>2164.0600589999999</ele>
        <time>2013-03-27T10:50:25Z</time>
      </trkpt>
      <trkpt lat="46.281902035698295" lon="8.064929014071822">
        <ele>2161.6601559999999</ele>
        <time>2013-03-27T10:50:33Z</time>
      </trkpt>
      <trkpt lat="46.281859036535025" lon="8.06479699909687">
        <ele>2160.219971</ele>
        <time>2013-03-27T10:50:47Z</time>
      </trkpt>
      <trkpt lat="46.281855013221502" lon="8.06477596051991">
        <ele>2157.3400879999999</ele>
        <time>2013-03-27T10:50:49Z</time>
      </trkpt>
      <trkpt lat="46.281820982694626" lon="8.064641011878848">
        <ele>2155.4099120000001</ele>
        <time>2013-03-27T10:51:06Z</time>
      </trkpt>
      <trkpt lat="46.281791981309652" lon="8.064578985795379">
        <ele>2151.570068</ele>
        <time>2013-03-27T10:51:49Z</time>
      </trkpt>
      <trkpt lat="46.281773038208485" lon="8.06453900411725">
        <ele>2151.0900879999999</ele>
        <time>2013-03-27T10:51:53Z</time>
      </trkpt>
      <trkpt lat="46.28172199241817" lon="8.06442903354764">
        <ele>2148.679932</ele>
        <time>2013-03-27T10:52:10Z</time>
      </trkpt>
      <trkpt lat="46.281674969941378" lon="8.064340017735958">
        <ele>2145.320068</ele>
        <time>2013-03-27T10:52:30Z</time>
      </trkpt>
      <trkpt lat="46.281655021011829" lon="8.064272040501237">
        <ele>2141.9499510000001</ele>
        <time>2013-03-27T10:52:45Z</time>
      </trkpt>
      <trkpt lat="46.28165602684021" lon="8.064192999154329">
        <ele>2139.070068</ele>
        <time>2013-03-27T10:53:04Z</time>
      </trkpt>
      <trkpt lat="46.281586959958076" lon="8.064102977514267">
        <ele>2135.709961</ele>
        <time>2013-03-27T10:53:20Z</time>
      </trkpt>
      <trkpt lat="46.281534992158413" lon="8.064021002501249">
        <ele>2132.3400879999999</ele>
        <time>2013-03-27T10:53:36Z</time>
      </trkpt>
      <trkpt lat="46.281487969681621" lon="8.063947996124625">
        <ele>2128.9799800000001</ele>
        <time>2013-03-27T10:53:47Z</time>
      </trkpt>
      <trkpt lat="46.281411023810506" lon="8.063843976706266">
        <ele>2125.610107</ele>
        <time>2013-03-27T10:54:01Z</time>
      </trkpt>
      <trkpt lat="46.281348997727036" lon="8.063748003914952">
        <ele>2122.25</ele>
        <time>2013-03-27T10:54:17Z</time>
      </trkpt>
      <trkpt lat="46.281318990513682" lon="8.063649013638496">
        <ele>2119.3598630000001</ele>
        <time>2013-03-27T10:54:27Z</time>
      </trkpt>
      <trkpt lat="46.281307004392147" lon="8.063602996990085">
        <ele>2117.9201659999999</ele>
        <time>2013-03-27T10:54:30Z</time>
      </trkpt>
      <trkpt lat="46.281300969421864" lon="8.063600985333324">
        <ele>2117.4399410000001</ele>
        <time>2013-03-27T10:54:52Z</time>
      </trkpt>
      <trkpt lat="46.281299963593483" lon="8.063533008098602">
        <ele>2115.5200199999999</ele>
        <time>2013-03-27T10:55:03Z</time>
      </trkpt>
      <trkpt lat="46.281262999400496" lon="8.063386995345354">
        <ele>2112.6298830000001</ele>
        <time>2013-03-27T10:55:16Z</time>
      </trkpt>
      <trkpt lat="46.281237015500665" lon="8.063320023939014">
        <ele>2109.75</ele>
        <time>2013-03-27T10:55:24Z</time>
      </trkpt>
      <trkpt lat="46.281187981367111" lon="8.063194965943694">
        <ele>2106.3901369999999</ele>
        <time>2013-03-27T10:55:36Z</time>
      </trkpt>
      <trkpt lat="46.28118303604424" lon="8.063171999529004">
        <ele>2104.9399410000001</ele>
        <time>2013-03-27T10:55:39Z</time>
      </trkpt>
      <trkpt lat="46.281170966103673" lon="8.063142998144031">
        <ele>2104.459961</ele>
        <time>2013-03-27T10:55:41Z</time>
      </trkpt>
      <trkpt lat="46.281115980818868" lon="8.063037972897291">
        <ele>2101.0998540000001</ele>
        <time>2013-03-27T10:55:52Z</time>
      </trkpt>
      <trkpt lat="46.281100977212191" lon="8.062942000105977">
        <ele>2097.7299800000001</ele>
        <time>2013-03-27T10:56:01Z</time>
      </trkpt>
      <trkpt lat="46.281080022454262" lon="8.062816020101309">
        <ele>2094.8500979999999</ele>
        <time>2013-03-27T10:56:12Z</time>
      </trkpt>
      <trkpt lat="46.281082034111023" lon="8.062784001231194">
        <ele>2093.4099120000001</ele>
        <time>2013-03-27T10:56:15Z</time>
      </trkpt>
      <trkpt lat="46.281084967777133" lon="8.062751982361078">
        <ele>2093.4099120000001</ele>
        <time>2013-03-27T10:56:17Z</time>
      </trkpt>
      <trkpt lat="46.281093014404178" lon="8.062722980976105">
        <ele>2091.969971</ele>
        <time>2013-03-27T10:56:20Z</time>
      </trkpt>
      <trkpt lat="46.281102988868952" lon="8.062659027054906">
        <ele>2090.040039</ele>
        <time>2013-03-27T10:56:25Z</time>
      </trkpt>
      <trkpt lat="46.281123021617532" lon="8.062503039836884">
        <ele>2086.1999510000001</ele>
        <time>2013-03-27T10:56:36Z</time>
      </trkpt>
      <trkpt lat="46.281113969162107" lon="8.062447970733047">
        <ele>2083.3098140000002</ele>
        <time>2013-03-27T10:56:46Z</time>
      </trkpt>
      <trkpt lat="46.281080022454262" lon="8.062361972406507">
        <ele>2079.9499510000001</ele>
        <time>2013-03-27T10:56:57Z</time>
      </trkpt>
      <trkpt lat="46.281035011634231" lon="8.062272034585476">
        <ele>2076.5900879999999</ele>
        <time>2013-03-27T10:57:11Z</time>
      </trkpt>
      <trkpt lat="46.280974997207522" lon="8.062192993238568">
        <ele>2075.6198730000001</ele>
        <time>2013-03-27T10:57:32Z</time>
      </trkpt>
      <trkpt lat="46.280937027186155" lon="8.06217203848064">
        <ele>2074.1801759999998</ele>
        <time>2013-03-27T10:58:11Z</time>
      </trkpt>
      <trkpt lat="46.280924035236239" lon="8.062070030719042">
        <ele>2071.3000489999999</ele>
        <time>2013-03-27T10:58:22Z</time>
      </trkpt>
      <trkpt lat="46.280910959467292" lon="8.061941033229232">
        <ele>2067.929932</ele>
        <time>2013-03-27T10:58:32Z</time>
      </trkpt>
      <trkpt lat="46.280911965295672" lon="8.061846988275647">
        <ele>2064.5698240000002</ele>
        <time>2013-03-27T10:58:40Z</time>
      </trkpt>
      <trkpt lat="46.280914982780814" lon="8.061835002154112">
        <ele>2064.5698240000002</ele>
        <time>2013-03-27T10:58:41Z</time>
      </trkpt>
      <trkpt lat="46.280923029407859" lon="8.061598967760801">
        <ele>2061.679932</ele>
        <time>2013-03-27T10:59:01Z</time>
      </trkpt>
      <trkpt lat="46.280911965295672" lon="8.061578013002873">
        <ele>2059.76001</ele>
        <time>2013-03-27T10:59:03Z</time>
      </trkpt>
      <trkpt lat="46.280895033851266" lon="8.061539959162474">
        <ele>2057.3598630000001</ele>
        <time>2013-03-27T10:59:24Z</time>
      </trkpt>
      <trkpt lat="46.280840970575809" lon="8.06150802411139">
        <ele>2054.469971</ele>
        <time>2013-03-27T10:59:55Z</time>
      </trkpt>
      <trkpt lat="46.280890004709363" lon="8.06140098720789">
        <ele>2052.5500489999999</ele>
        <time>2013-03-27T11:00:13Z</time>
      </trkpt>
      <trkpt lat="46.280780034139752" lon="8.061398975551128">
        <ele>2051.5900879999999</ele>
        <time>2013-03-27T11:00:42Z</time>
      </trkpt>
      <trkpt lat="46.280664028599858" lon="8.061389001086354">
        <ele>2050.6298830000001</ele>
        <time>2013-03-27T11:01:02Z</time>
      </trkpt>
      <trkpt lat="46.280597979202867" lon="8.061368968337774">
        <ele>2050.6298830000001</ele>
        <time>2013-03-27T11:01:09Z</time>
      </trkpt>
      <trkpt lat="46.280555985867977" lon="8.061353964731097">
        <ele>2050.1499020000001</ele>
        <time>2013-03-27T11:01:27Z</time>
      </trkpt>
      <trkpt lat="46.28045498393476" lon="8.061339966952801">
        <ele>2049.1899410000001</ele>
        <time>2013-03-27T11:01:48Z</time>
      </trkpt>
      <trkpt lat="46.280236970633268" lon="8.06120996363461">
        <ele>2047.75</ele>
        <time>2013-03-27T11:02:09Z</time>
      </trkpt>
      <trkpt lat="46.280177040025592" lon="8.06107996031642">
        <ele>2047.75</ele>
        <time>2013-03-27T11:02:18Z</time>
      </trkpt>
      <trkpt lat="46.280073020607233" lon="8.060934031382203">
        <ele>2046.299927</ele>
        <time>2013-03-27T11:02:30Z</time>
      </trkpt>
      <trkpt lat="46.280007977038622" lon="8.060747031122446">
        <ele>2046.299927</ele>
        <time>2013-03-27T11:02:43Z</time>
      </trkpt>
      <trkpt lat="46.279996996745467" lon="8.06073403917253">
        <ele>2045.8199460000001</ele>
        <time>2013-03-27T11:02:44Z</time>
      </trkpt>
      <trkpt lat="46.279935976490378" lon="8.060613004490733">
        <ele>2048.2299800000001</ele>
        <time>2013-03-27T11:02:58Z</time>
      </trkpt>
      <trkpt lat="46.279803039506078" lon="8.060575034469366">
        <ele>2050.1499020000001</ele>
        <time>2013-03-27T11:03:17Z</time>
      </trkpt>
      <trkpt lat="46.279675969853997" lon="8.060587020590901">
        <ele>2051.5900879999999</ele>
        <time>2013-03-27T11:03:32Z</time>
      </trkpt>
      <trkpt lat="46.279620984569192" lon="8.060592971742153">
        <ele>2051.1098630000001</ele>
        <time>2013-03-27T11:03:37Z</time>
      </trkpt>
      <trkpt lat="46.279555018991232" lon="8.060565982013941">
        <ele>2050.6298830000001</ele>
        <time>2013-03-27T11:03:44Z</time>
      </trkpt>
      <trkpt lat="46.27950799651444" lon="8.060443019494414">
        <ele>2050.6298830000001</ele>
        <time>2013-03-27T11:04:00Z</time>
      </trkpt>
      <trkpt lat="46.27948796376586" lon="8.060394991189241">
        <ele>2050.6298830000001</ele>
        <time>2013-03-27T11:04:18Z</time>
      </trkpt>
      <trkpt lat="46.279386961832643" lon="8.060288960114121">
        <ele>2052.070068</ele>
        <time>2013-03-27T11:04:35Z</time>
      </trkpt>
      <trkpt lat="46.279329964891076" lon="8.060126015916467">
        <ele>2053.51001</ele>
        <time>2013-03-27T11:04:49Z</time>
      </trkpt>
      <trkpt lat="46.279282020404935" lon="8.059954019263387">
        <ele>2054.959961</ele>
        <time>2013-03-27T11:05:03Z</time>
      </trkpt>
      <trkpt lat="46.279242960736156" lon="8.059665011242032">
        <ele>2056.8798830000001</ele>
        <time>2013-03-27T11:05:24Z</time>
      </trkpt>
      <trkpt lat="46.279211025685072" lon="8.05942696519196">
        <ele>2058.320068</ele>
        <time>2013-03-27T11:05:44Z</time>
      </trkpt>
      <trkpt lat="46.279179006814957" lon="8.059172993525863">
        <ele>2060.719971</ele>
        <time>2013-03-27T11:06:05Z</time>
      </trkpt>
      <trkpt lat="46.279189987108111" lon="8.058965038508177">
        <ele>2062.6501459999999</ele>
        <time>2013-03-27T11:06:32Z</time>
      </trkpt>
      <trkpt lat="46.279194010421634" lon="8.058741996064782">
        <ele>2065.530029</ele>
        <time>2013-03-27T11:06:52Z</time>
      </trkpt>
      <trkpt lat="46.279180012643337" lon="8.058574022725225">
        <ele>2066.01001</ele>
        <time>2013-03-27T11:07:11Z</time>
      </trkpt>
      <trkpt lat="46.279090996831656" lon="8.058434966951609">
        <ele>2066.48999</ele>
        <time>2013-03-27T11:07:27Z</time>
      </trkpt>
      <trkpt lat="46.279006004333496" lon="8.058289960026741">
        <ele>2069.860107</ele>
        <time>2013-03-27T11:07:44Z</time>
      </trkpt>
      <trkpt lat="46.278902990743518" lon="8.058163980022073">
        <ele>2071.780029</ele>
        <time>2013-03-27T11:08:04Z</time>
      </trkpt>
      <trkpt lat="46.278867032378912" lon="8.058151993900538">
        <ele>2072.26001</ele>
        <time>2013-03-27T11:08:08Z</time>
      </trkpt>
      <trkpt lat="46.278815986588597" lon="8.058131039142609">
        <ele>2072.26001</ele>
        <time>2013-03-27T11:08:13Z</time>
      </trkpt>
      <trkpt lat="46.278739962726831" lon="8.058132966980338">
        <ele>2073.6999510000001</ele>
        <time>2013-03-27T11:08:26Z</time>
      </trkpt>
      <trkpt lat="46.278644995763898" lon="8.058065995573998">
        <ele>2075.1401369999999</ele>
        <time>2013-03-27T11:08:37Z</time>
      </trkpt>
      <trkpt lat="46.278568971902132" lon="8.057853011414409">
        <ele>2077.5500489999999</ele>
        <time>2013-03-27T11:08:58Z</time>
      </trkpt>
      <trkpt lat="46.278439974412322" lon="8.057787967845798">
        <ele>2078.98999</ele>
        <time>2013-03-27T11:09:19Z</time>
      </trkpt>
      <trkpt lat="46.278301002457738" lon="8.057817975059152">
        <ele>2080.429932</ele>
        <time>2013-03-27T11:09:35Z</time>
      </trkpt>
      <trkpt lat="46.278238976374269" lon="8.057843958958983">
        <ele>2082.3500979999999</ele>
        <time>2013-03-27T11:09:47Z</time>
      </trkpt>
      <trkpt lat="46.278077038004994" lon="8.057849993929267">
        <ele>2084.280029</ele>
        <time>2013-03-27T11:10:06Z</time>
      </trkpt>
      <trkpt lat="46.277986010536551" lon="8.057698030024767">
        <ele>2087.1599120000001</ele>
        <time>2013-03-27T11:10:23Z</time>
      </trkpt>
      <trkpt lat="46.278054993599653" lon="8.057479010894895">
        <ele>2089.080078</ele>
        <time>2013-03-27T11:10:38Z</time>
      </trkpt>
      <trkpt lat="46.278147026896477" lon="8.057407010346651">
        <ele>2090.040039</ele>
        <time>2013-03-27T11:10:51Z</time>
      </trkpt>
      <trkpt lat="46.278161024674773" lon="8.057396030053496">
        <ele>2089.5600589999999</ele>
        <time>2013-03-27T11:10:53Z</time>
      </trkpt>
      <trkpt lat="46.278255991637707" lon="8.057238031178713">
        <ele>2090.5200199999999</ele>
        <time>2013-03-27T11:11:09Z</time>
      </trkpt>
      <trkpt lat="46.278338972479105" lon="8.057096963748336">
        <ele>2092.4499510000001</ele>
        <time>2013-03-27T11:11:23Z</time>
      </trkpt>
      <trkpt lat="46.278368979692459" lon="8.057089000940323">
        <ele>2092.4499510000001</ele>
        <time>2013-03-27T11:11:45Z</time>
      </trkpt>
      <trkpt lat="46.27839001826942" lon="8.057044995948672">
        <ele>2094.8500979999999</ele>
        <time>2013-03-27T11:12:51Z</time>
      </trkpt>
      <trkpt lat="46.278423964977264" lon="8.056830000132322">
        <ele>2096.290039</ele>
        <time>2013-03-27T11:13:06Z</time>
      </trkpt>
      <trkpt lat="46.278429999947548" lon="8.056627996265888">
        <ele>2096.7700199999999</ele>
        <time>2013-03-27T11:13:22Z</time>
      </trkpt>
      <trkpt lat="46.278431005775928" lon="8.056640988215804">
        <ele>2096.290039</ele>
        <time>2013-03-27T11:13:44Z</time>
      </trkpt>
      <trkpt lat="46.278429999947548" lon="8.056649034842849">
        <ele>2095.8100589999999</ele>
        <time>2013-03-27T11:14:29Z</time>
      </trkpt>
      <trkpt lat="46.278437040746212" lon="8.056625984609127">
        <ele>2095.330078</ele>
        <time>2013-03-27T11:14:53Z</time>
      </trkpt>
      <trkpt lat="46.278445003554225" lon="8.056581979617477">
        <ele>2095.8100589999999</ele>
        <time>2013-03-27T11:15:21Z</time>
      </trkpt>
      <trkpt lat="46.278465036302805" lon="8.056563036516309">
        <ele>2095.330078</ele>
        <time>2013-03-27T11:15:47Z</time>
      </trkpt>
      <trkpt lat="46.278504012152553" lon="8.056536968797445">
        <ele>2095.330078</ele>
        <time>2013-03-27T11:16:25Z</time>
      </trkpt>
      <trkpt lat="46.278514992445707" lon="8.056515008211136">
        <ele>2095.330078</ele>
        <time>2013-03-27T11:16:49Z</time>
      </trkpt>
      <trkpt lat="46.278567966073751" lon="8.056528000161052">
        <ele>2094.3698730000001</ele>
        <time>2013-03-27T11:17:23Z</time>
      </trkpt>
      <trkpt lat="46.278525972738862" lon="8.056541997939348">
        <ele>2095.8100589999999</ele>
        <time>2013-03-27T11:33:19Z</time>
      </trkpt>
      <trkpt lat="46.278464030474424" lon="8.056605029851198">
        <ele>2095.8100589999999</ele>
        <time>2013-03-27T11:35:30Z</time>
      </trkpt>
      <trkpt lat="46.278411978855729" lon="8.056530011817813">
        <ele>2095.8100589999999</ele>
        <time>2013-03-27T11:38:07Z</time>
      </trkpt>
      <trkpt lat="46.278484985232353" lon="8.056440996006131">
        <ele>2095.8100589999999</ele>
        <time>2013-03-27T11:39:02Z</time>
      </trkpt>
      <trkpt lat="46.278459001332521" lon="8.056437978520989">
        <ele>2096.290039</ele>
        <time>2013-03-27T11:39:43Z</time>
      </trkpt>
      <trkpt lat="46.278457995504141" lon="8.056547027081251">
        <ele>2096.290039</ele>
        <time>2013-03-27T11:46:22Z</time>
      </trkpt>
      <trkpt lat="46.278525972738862" lon="8.056537974625826">
        <ele>2096.290039</ele>
        <time>2013-03-27T11:46:58Z</time>
      </trkpt>
      <trkpt lat="46.278492026031017" lon="8.056535040959716">
        <ele>2097.7299800000001</ele>
        <time>2013-03-27T11:48:36Z</time>
      </trkpt>
      <trkpt lat="46.27841298468411" lon="8.056763028725982">
        <ele>2100.6198730000001</ele>
        <time>2013-03-27T11:50:01Z</time>
      </trkpt>
      <trkpt lat="46.278217015787959" lon="8.056727992370725">
        <ele>2103.9799800000001</ele>
        <time>2013-03-27T11:50:21Z</time>
      </trkpt>
      <trkpt lat="46.278140991926193" lon="8.056667977944017">
        <ele>2103.5</ele>
        <time>2013-03-27T11:50:40Z</time>
      </trkpt>
      <trkpt lat="46.278076032176614" lon="8.056609975174069">
        <ele>2104.459961</ele>
        <time>2013-03-27T11:50:52Z</time>
      </trkpt>
      <trkpt lat="46.27789800055325" lon="8.056517019867897">
        <ele>2105.9099120000001</ele>
        <time>2013-03-27T11:51:07Z</time>
      </trkpt>
      <trkpt lat="46.277871010825038" lon="8.056452982127667">
        <ele>2105.9099120000001</ele>
        <time>2013-03-27T11:51:21Z</time>
      </trkpt>
      <trkpt lat="46.277836980298162" lon="8.056426998227835">
        <ele>2106.3901369999999</ele>
        <time>2013-03-27T11:52:12Z</time>
      </trkpt>
      <trkpt lat="46.277744024991989" lon="8.056376036256552">
        <ele>2106.8701169999999</ele>
        <time>2013-03-27T11:52:36Z</time>
      </trkpt>
      <trkpt lat="46.277675963938236" lon="8.056363966315985">
        <ele>2108.3098140000002</ele>
        <time>2013-03-27T11:53:00Z</time>
      </trkpt>
      <trkpt lat="46.277587031945586" lon="8.056322978809476">
        <ele>2108.790039</ele>
        <time>2013-03-27T11:53:09Z</time>
      </trkpt>
      <trkpt lat="46.27733901143074" lon="8.056319039314985">
        <ele>2109.75</ele>
        <time>2013-03-27T11:53:35Z</time>
      </trkpt>
      <trkpt lat="46.277247983962297" lon="8.056347034871578">
        <ele>2111.1899410000001</ele>
        <time>2013-03-27T11:53:51Z</time>
      </trkpt>
      <trkpt lat="46.277098031714559" lon="8.056305963546038">
        <ele>2112.1499020000001</ele>
        <time>2013-03-27T11:54:09Z</time>
      </trkpt>
      <trkpt lat="46.276900973170996" lon="8.056316021829844">
        <ele>2114.080078</ele>
        <time>2013-03-27T11:54:28Z</time>
      </trkpt>
      <trkpt lat="46.276635015383363" lon="8.056294983252883">
        <ele>2116.959961</ele>
        <time>2013-03-27T11:54:53Z</time>
      </trkpt>
      <trkpt lat="46.27652202732861" lon="8.056195992976427">
        <ele>2118.8801269999999</ele>
        <time>2013-03-27T11:55:14Z</time>
      </trkpt>
      <trkpt lat="46.276420019567013" lon="8.056100020185113">
        <ele>2120.8100589999999</ele>
        <time>2013-03-27T11:55:35Z</time>
      </trkpt>
      <trkpt lat="46.276308037340641" lon="8.055974040180445">
        <ele>2122.25</ele>
        <time>2013-03-27T11:55:52Z</time>
      </trkpt>
      <trkpt lat="46.276268977671862" lon="8.055935986340046">
        <ele>2125.610107</ele>
        <time>2013-03-27T11:56:36Z</time>
      </trkpt>
      <trkpt lat="46.276212986558676" lon="8.055899022147059">
        <ele>2125.610107</ele>
        <time>2013-03-27T11:56:44Z</time>
      </trkpt>
      <trkpt lat="46.276081977412105" lon="8.055760972201824">
        <ele>2129.459961</ele>
        <time>2013-03-27T11:57:04Z</time>
      </trkpt>
      <trkpt lat="46.276060016825795" lon="8.055726019665599">
        <ele>2128.9799800000001</ele>
        <time>2013-03-27T11:57:08Z</time>
      </trkpt>
      <trkpt lat="46.275949040427804" lon="8.055623006075621">
        <ele>2130.8999020000001</ele>
        <time>2013-03-27T11:57:21Z</time>
      </trkpt>
      <trkpt lat="46.275874022394419" lon="8.055475987493992">
        <ele>2133.3000489999999</ele>
        <time>2013-03-27T11:57:39Z</time>
      </trkpt>
      <trkpt lat="46.275800010189414" lon="8.055369034409523">
        <ele>2135.709961</ele>
        <time>2013-03-27T11:57:54Z</time>
      </trkpt>
      <trkpt lat="46.275716023519635" lon="8.055239031091332">
        <ele>2138.1098630000001</ele>
        <time>2013-03-27T11:58:12Z</time>
      </trkpt>
      <trkpt lat="46.275689033791423" lon="8.055202988907695">
        <ele>2138.1098630000001</ele>
        <time>2013-03-27T11:58:17Z</time>
      </trkpt>
      <trkpt lat="46.275600017979741" lon="8.054997967556119">
        <ele>2139.5500489999999</ele>
        <time>2013-03-27T11:58:38Z</time>
      </trkpt>
      <trkpt lat="46.275509996339679" lon="8.05478498339653">
        <ele>2140.51001</ele>
        <time>2013-03-27T11:58:58Z</time>
      </trkpt>
      <trkpt lat="46.275443024933338" lon="8.054628996178508">
        <ele>2140.51001</ele>
        <time>2013-03-27T11:59:13Z</time>
      </trkpt>
      <trkpt lat="46.275447970256209" lon="8.054502010345459">
        <ele>2140.98999</ele>
        <time>2013-03-27T11:59:33Z</time>
      </trkpt>
      <trkpt lat="46.275370018556714" lon="8.054355997592211">
        <ele>2141.9499510000001</ele>
        <time>2013-03-27T11:59:50Z</time>
      </trkpt>
      <trkpt lat="46.275330036878586" lon="8.054295983165503">
        <ele>2143.4001459999999</ele>
        <time>2013-03-27T11:59:56Z</time>
      </trkpt>
      <trkpt lat="46.275359960272908" lon="8.054201016202569">
        <ele>2143.8801269999999</ele>
        <time>2013-03-27T12:00:14Z</time>
      </trkpt>
      <trkpt lat="46.275298018008471" lon="8.054110994562507">
        <ele>2145.8000489999999</ele>
        <time>2013-03-27T12:00:32Z</time>
      </trkpt>
      <trkpt lat="46.275191986933351" lon="8.054020972922444">
        <ele>2148.679932</ele>
        <time>2013-03-27T12:00:54Z</time>
      </trkpt>
      <trkpt lat="46.275087967514992" lon="8.053917959332466">
        <ele>2152.0500489999999</ele>
        <time>2013-03-27T12:01:10Z</time>
      </trkpt>
      <trkpt lat="46.275004986673594" lon="8.053773958235979">
        <ele>2153.01001</ele>
        <time>2013-03-27T12:01:31Z</time>
      </trkpt>
      <trkpt lat="46.274847993627191" lon="8.053590981289744">
        <ele>2153.969971</ele>
        <time>2013-03-27T12:01:52Z</time>
      </trkpt>
      <trkpt lat="46.274785967543721" lon="8.053535996004939">
        <ele>2156.3698730000001</ele>
        <time>2013-03-27T12:02:02Z</time>
      </trkpt>
      <trkpt lat="46.274741040542722" lon="8.053454020991921">
        <ele>2157.820068</ele>
        <time>2013-03-27T12:02:21Z</time>
      </trkpt>
      <trkpt lat="46.274731988087296" lon="8.053440023213625">
        <ele>2160.6999510000001</ele>
        <time>2013-03-27T12:02:27Z</time>
      </trkpt>
      <trkpt lat="46.274704998359084" lon="8.053329968824983">
        <ele>2164.0600589999999</ele>
        <time>2013-03-27T12:02:49Z</time>
      </trkpt>
      <trkpt lat="46.274669962003827" lon="8.053317982703447">
        <ele>2165.030029</ele>
        <time>2013-03-27T12:02:58Z</time>
      </trkpt>
      <trkpt lat="46.274636015295982" lon="8.053273977711797">
        <ele>2165.98999</ele>
        <time>2013-03-27T12:03:17Z</time>
      </trkpt>
      <trkpt lat="46.27448296174407" lon="8.053176999092102">
        <ele>2167.9099120000001</ele>
        <time>2013-03-27T12:03:38Z</time>
      </trkpt>
      <trkpt lat="46.274442980065942" lon="8.053160989657044">
        <ele>2167.9099120000001</ele>
        <time>2013-03-27T12:03:44Z</time>
      </trkpt>
      <trkpt lat="46.274307025596499" lon="8.053071973845363">
        <ele>2168.8701169999999</ele>
        <time>2013-03-27T12:04:01Z</time>
      </trkpt>
      <trkpt lat="46.274195965379477" lon="8.052984969690442">
        <ele>2170.790039</ele>
        <time>2013-03-27T12:04:18Z</time>
      </trkpt>
      <trkpt lat="46.274096975103021" lon="8.052902994677424">
        <ele>2170.790039</ele>
        <time>2013-03-27T12:04:32Z</time>
      </trkpt>
      <trkpt lat="46.273952974006534" lon="8.052824959158897">
        <ele>2171.76001</ele>
        <time>2013-03-27T12:04:47Z</time>
      </trkpt>
      <trkpt lat="46.273917015641928" lon="8.052746001631022">
        <ele>2172.719971</ele>
        <time>2013-03-27T12:04:55Z</time>
      </trkpt>
      <trkpt lat="46.273848032578826" lon="8.052690010517836">
        <ele>2175.1201169999999</ele>
        <time>2013-03-27T12:05:17Z</time>
      </trkpt>
      <trkpt lat="46.273701013997197" lon="8.052594037726522">
        <ele>2177.5200199999999</ele>
        <time>2013-03-27T12:05:34Z</time>
      </trkpt>
      <trkpt lat="46.273630019277334" lon="8.052547015249729">
        <ele>2177.040039</ele>
        <time>2013-03-27T12:05:44Z</time>
      </trkpt>
      <trkpt lat="46.27344997599721" lon="8.052517008036375">
        <ele>2176.080078</ele>
        <time>2013-03-27T12:06:00Z</time>
      </trkpt>
      <trkpt lat="46.273350985720754" lon="8.052483983337879">
        <ele>2175.6000979999999</ele>
        <time>2013-03-27T12:06:13Z</time>
      </trkpt>
      <trkpt lat="46.273313015699387" lon="8.052469985559583">
        <ele>2174.639893</ele>
        <time>2013-03-27T12:06:43Z</time>
      </trkpt>
      <trkpt lat="46.273116962984204" lon="8.052415000274777">
        <ele>2175.1201169999999</ele>
        <time>2013-03-27T12:08:21Z</time>
      </trkpt>
      <trkpt lat="46.272870032116771" lon="8.05233696475625">
        <ele>2174.1599120000001</ele>
        <time>2013-03-27T12:08:42Z</time>
      </trkpt>
      <trkpt lat="46.272698035463691" lon="8.05231399834156">
        <ele>2174.1599120000001</ele>
        <time>2013-03-27T12:08:53Z</time>
      </trkpt>
      <trkpt lat="46.272608013823628" lon="8.052231017500162">
        <ele>2174.639893</ele>
        <time>2013-03-27T12:09:09Z</time>
      </trkpt>
      <trkpt lat="46.272583035752177" lon="8.052179971709848">
        <ele>2174.1599120000001</ele>
        <time>2013-03-27T12:09:20Z</time>
      </trkpt>
      <trkpt lat="46.27252402715385" lon="8.052173014730215">
        <ele>2177.040039</ele>
        <time>2013-03-27T12:09:40Z</time>
      </trkpt>
      <trkpt lat="46.272410033270717" lon="8.052123980596662">
        <ele>2180.4099120000001</ele>
        <time>2013-03-27T12:09:58Z</time>
      </trkpt>
      <trkpt lat="46.272362004965544" lon="8.052063966169953">
        <ele>2182.8100589999999</ele>
        <time>2013-03-27T12:10:16Z</time>
      </trkpt>
      <trkpt lat="46.272328980267048" lon="8.051961036399007">
        <ele>2186.179932</ele>
        <time>2013-03-27T12:10:34Z</time>
      </trkpt>
      <trkpt lat="46.272296961396933" lon="8.0518629681319">
        <ele>2189.0600589999999</ele>
        <time>2013-03-27T12:10:52Z</time>
      </trkpt>
      <trkpt lat="46.272278018295765" lon="8.051795996725559">
        <ele>2191.9399410000001</ele>
        <time>2013-03-27T12:11:12Z</time>
      </trkpt>
      <trkpt lat="46.272191014140844" lon="8.051717039197683">
        <ele>2194.830078</ele>
        <time>2013-03-27T12:11:38Z</time>
      </trkpt>
      <trkpt lat="46.272089006379247" lon="8.051786022260785">
        <ele>2196.2700199999999</ele>
        <time>2013-03-27T12:12:09Z</time>
      </trkpt>
      <trkpt lat="46.27205397002399" lon="8.051719972863793">
        <ele>2196.2700199999999</ele>
        <time>2013-03-27T12:12:43Z</time>
      </trkpt>
      <trkpt lat="46.271918015554547" lon="8.051738999783993">
        <ele>2200.1098630000001</ele>
        <time>2013-03-27T12:13:02Z</time>
      </trkpt>
      <trkpt lat="46.271840985864401" lon="8.051703963428736">
        <ele>2202.5200199999999</ele>
        <time>2013-03-27T12:13:18Z</time>
      </trkpt>
      <trkpt lat="46.271812990307808" lon="8.05162601172924">
        <ele>2205.4001459999999</ele>
        <time>2013-03-27T12:13:33Z</time>
      </trkpt>
      <trkpt lat="46.271807961165905" lon="8.051488967612386">
        <ele>2208.7700199999999</ele>
        <time>2013-03-27T12:13:52Z</time>
      </trkpt>
      <trkpt lat="46.271865963935852" lon="8.051359970122576">
        <ele>2210.209961</ele>
        <time>2013-03-27T12:14:06Z</time>
      </trkpt>
      <trkpt lat="46.271993033587933" lon="8.051337003707886">
        <ele>2212.610107</ele>
        <time>2013-03-27T12:14:26Z</time>
      </trkpt>
      <trkpt lat="46.272063022479415" lon="8.051201971247792">
        <ele>2212.610107</ele>
        <time>2013-03-27T12:14:46Z</time>
      </trkpt>
      <trkpt lat="46.272123958915472" lon="8.051055958494544">
        <ele>2213.570068</ele>
        <time>2013-03-27T12:14:58Z</time>
      </trkpt>
      <trkpt lat="46.272170981392264" lon="8.050925033167005">
        <ele>2217.8999020000001</ele>
        <time>2013-03-27T12:15:13Z</time>
      </trkpt>
      <trkpt lat="46.272189002484083" lon="8.050854960456491">
        <ele>2219.820068</ele>
        <time>2013-03-27T12:15:25Z</time>
      </trkpt>
      <trkpt lat="46.272276006639004" lon="8.050696039572358">
        <ele>2220.780029</ele>
        <time>2013-03-27T12:15:48Z</time>
      </trkpt>
      <trkpt lat="46.272284975275397" lon="8.050693022087216">
        <ele>2223.1901859999998</ele>
        <time>2013-03-27T12:15:50Z</time>
      </trkpt>
      <trkpt lat="46.272299978882074" lon="8.050713976845145">
        <ele>2224.1499020000001</ele>
        <time>2013-03-27T12:16:23Z</time>
      </trkpt>
      <trkpt lat="46.272329986095428" lon="8.050712971016765">
        <ele>2224.6298830000001</ele>
        <time>2013-03-27T12:17:04Z</time>
      </trkpt>
      <trkpt lat="46.272327974438667" lon="8.050721017643809">
        <ele>2224.6298830000001</ele>
        <time>2013-03-27T12:17:45Z</time>
      </trkpt>
      <trkpt lat="46.272380026057363" lon="8.050710959360004">
        <ele>2224.1499020000001</ele>
        <time>2013-03-27T12:18:15Z</time>
      </trkpt>
      <trkpt lat="46.272391006350517" lon="8.050651028752327">
        <ele>2223.669922</ele>
        <time>2013-03-27T12:18:37Z</time>
      </trkpt>
      <trkpt lat="46.272369967773557" lon="8.050663014873862">
        <ele>2224.6298830000001</ele>
        <time>2013-03-27T12:22:02Z</time>
      </trkpt>
      <trkpt lat="46.272372985258698" lon="8.050634013488889">
        <ele>2223.669922</ele>
        <time>2013-03-27T12:22:26Z</time>
      </trkpt>
      <trkpt lat="46.272402992472053" lon="8.05052999407053">
        <ele>2220.3000489999999</ele>
        <time>2013-03-27T12:22:39Z</time>
      </trkpt>
      <trkpt lat="46.272457977756858" lon="8.050526976585388">
        <ele>2217.419922</ele>
        <time>2013-03-27T12:22:53Z</time>
      </trkpt>
      <trkpt lat="46.27250500023365" lon="8.050508033484221">
        <ele>2214.0500489999999</ele>
        <time>2013-03-27T12:23:01Z</time>
      </trkpt>
      <trkpt lat="46.272526038810611" lon="8.050506021827459">
        <ele>2212.610107</ele>
        <time>2013-03-27T12:23:25Z</time>
      </trkpt>
      <trkpt lat="46.27259099856019" lon="8.05048699490726">
        <ele>2208.7700199999999</ele>
        <time>2013-03-27T12:24:00Z</time>
      </trkpt>
      <trkpt lat="46.272680014371872" lon="8.050454976037145">
        <ele>2205.4001459999999</ele>
        <time>2013-03-27T12:24:11Z</time>
      </trkpt>
      <trkpt lat="46.27278596162796" lon="8.05042396299541">
        <ele>2202.5200199999999</ele>
        <time>2013-03-27T12:24:23Z</time>
      </trkpt>
      <trkpt lat="46.272915964946151" lon="8.050388004630804">
        <ele>2199.1499020000001</ele>
        <time>2013-03-27T12:24:37Z</time>
      </trkpt>
      <trkpt lat="46.273049991577864" lon="8.050308041274548">
        <ele>2198.1901859999998</ele>
        <time>2013-03-27T12:24:50Z</time>
      </trkpt>
      <trkpt lat="46.273087961599231" lon="8.050279961898923">
        <ele>2197.709961</ele>
        <time>2013-03-27T12:24:54Z</time>
      </trkpt>
      <trkpt lat="46.273218970745802" lon="8.050139984115958">
        <ele>2195.3100589999999</ele>
        <time>2013-03-27T12:25:11Z</time>
      </trkpt>
      <trkpt lat="46.27334201708436" lon="8.049969999119639">
        <ele>2192.419922</ele>
        <time>2013-03-27T12:25:27Z</time>
      </trkpt>
      <trkpt lat="46.273351991549134" lon="8.049913002178073">
        <ele>2191.459961</ele>
        <time>2013-03-27T12:25:31Z</time>
      </trkpt>
      <trkpt lat="46.273383004590869" lon="8.049680991098285">
        <ele>2189.540039</ele>
        <time>2013-03-27T12:25:47Z</time>
      </trkpt>
      <trkpt lat="46.273411000147462" lon="8.049533972516656">
        <ele>2188.0998540000001</ele>
        <time>2013-03-27T12:26:00Z</time>
      </trkpt>
      <trkpt lat="46.273446958512068" lon="8.049435988068581">
        <ele>2187.1401369999999</ele>
        <time>2013-03-27T12:26:17Z</time>
      </trkpt>
      <trkpt lat="46.273527005687356" lon="8.049430958926678">
        <ele>2183.7700199999999</ele>
        <time>2013-03-27T12:27:35Z</time>
      </trkpt>
      <trkpt lat="46.273648962378502" lon="8.049413021653891">
        <ele>2180.4099120000001</ele>
        <time>2013-03-27T12:27:52Z</time>
      </trkpt>
      <trkpt lat="46.273675030097365" lon="8.049363987520337">
        <ele>2179.929932</ele>
        <time>2013-03-27T12:27:55Z</time>
      </trkpt>
      <trkpt lat="46.273693973198533" lon="8.049155026674271">
        <ele>2177.040039</ele>
        <time>2013-03-27T12:28:11Z</time>
      </trkpt>
      <trkpt lat="46.273697996512055" lon="8.049096018075943">
        <ele>2175.1201169999999</ele>
        <time>2013-03-27T12:28:17Z</time>
      </trkpt>
      <trkpt lat="46.273711994290352" lon="8.049057964235544">
        <ele>2174.639893</ele>
        <time>2013-03-27T12:28:20Z</time>
      </trkpt>
      <trkpt lat="46.273827999830246" lon="8.048902982845902">
        <ele>2171.2700199999999</ele>
        <time>2013-03-27T12:28:35Z</time>
      </trkpt>
      <trkpt lat="46.27392103895545" lon="8.048826036974788">
        <ele>2169.830078</ele>
        <time>2013-03-27T12:28:46Z</time>
      </trkpt>
      <trkpt lat="46.273997984826565" lon="8.048611041158438">
        <ele>2168.3901369999999</ele>
        <time>2013-03-27T12:29:00Z</time>
      </trkpt>
      <trkpt lat="46.274048024788499" lon="8.048521019518375">
        <ele>2168.8701169999999</ele>
        <time>2013-03-27T12:29:09Z</time>
      </trkpt>
      <trkpt lat="46.274061016738415" lon="8.048436027020216">
        <ele>2167.429932</ele>
        <time>2013-03-27T12:29:15Z</time>
      </trkpt>
      <trkpt lat="46.274098986759782" lon="8.048281967639923">
        <ele>2165.51001</ele>
        <time>2013-03-27T12:29:26Z</time>
      </trkpt>
      <trkpt lat="46.274195965379477" lon="8.048087004572153">
        <ele>2165.030029</ele>
        <time>2013-03-27T12:29:41Z</time>
      </trkpt>
      <trkpt lat="46.274234019219875" lon="8.048050040379167">
        <ele>2165.030029</ele>
        <time>2013-03-27T12:29:46Z</time>
      </trkpt>
      <trkpt lat="46.274249022826552" lon="8.048022966831923">
        <ele>2165.030029</ele>
        <time>2013-03-27T12:29:48Z</time>
      </trkpt>
      <trkpt lat="46.274291016161442" lon="8.04799597710371">
        <ele>2165.51001</ele>
        <time>2013-03-27T12:29:53Z</time>
      </trkpt>
      <trkpt lat="46.274405010044575" lon="8.047791961580515">
        <ele>2165.51001</ele>
        <time>2013-03-27T12:30:08Z</time>
      </trkpt>
      <trkpt lat="46.274442980065942" lon="8.04773697629571">
        <ele>2165.51001</ele>
        <time>2013-03-27T12:30:14Z</time>
      </trkpt>
      <trkpt lat="46.274454966187477" lon="8.047679979354143">
        <ele>2165.51001</ele>
        <time>2013-03-27T12:30:18Z</time>
      </trkpt>
      <trkpt lat="46.274461001157761" lon="8.047550981864333">
        <ele>2165.98999</ele>
        <time>2013-03-27T12:30:28Z</time>
      </trkpt>
      <trkpt lat="46.274453960359097" lon="8.047318970784545">
        <ele>2164.5500489999999</ele>
        <time>2013-03-27T12:30:44Z</time>
      </trkpt>
      <trkpt lat="46.274462006986141" lon="8.047111015766859">
        <ele>2163.0998540000001</ele>
        <time>2013-03-27T12:30:58Z</time>
      </trkpt>
      <trkpt lat="46.274465024471283" lon="8.046991992741823">
        <ele>2163.0998540000001</ele>
        <time>2013-03-27T12:31:12Z</time>
      </trkpt>
      <trkpt lat="46.274536019191146" lon="8.046886967495084">
        <ele>2163.0998540000001</ele>
        <time>2013-03-27T12:31:57Z</time>
      </trkpt>
      <trkpt lat="46.274546999484301" lon="8.04687799885869">
        <ele>2161.179932</ele>
        <time>2013-03-27T12:31:59Z</time>
      </trkpt>
      <trkpt lat="46.274620005860925" lon="8.046827036887407">
        <ele>2157.820068</ele>
        <time>2013-03-27T12:32:15Z</time>
      </trkpt>
      <trkpt lat="46.274706004187465" lon="8.046803986653686">
        <ele>2154.4499510000001</ele>
        <time>2013-03-27T12:32:26Z</time>
      </trkpt>
      <trkpt lat="46.27478102222085" lon="8.046727040782571">
        <ele>2151.0900879999999</ele>
        <time>2013-03-27T12:32:39Z</time>
      </trkpt>
      <trkpt lat="46.274827960878611" lon="8.046608017757535">
        <ele>2148.679932</ele>
        <time>2013-03-27T12:32:56Z</time>
      </trkpt>
      <trkpt lat="46.274844976142049" lon="8.046500980854034">
        <ele>2145.320068</ele>
        <time>2013-03-27T12:33:08Z</time>
      </trkpt>
      <trkpt lat="46.274870038032532" lon="8.046352034434676">
        <ele>2142.4399410000001</ele>
        <time>2013-03-27T12:33:23Z</time>
      </trkpt>
      <trkpt lat="46.274903984740376" lon="8.046249020844698">
        <ele>2139.070068</ele>
        <time>2013-03-27T12:33:35Z</time>
      </trkpt>
      <trkpt lat="46.274903984740376" lon="8.046047016978264">
        <ele>2135.709961</ele>
        <time>2013-03-27T12:33:52Z</time>
      </trkpt>
      <trkpt lat="46.274882024154067" lon="8.045881977304816">
        <ele>2132.820068</ele>
        <time>2013-03-27T12:34:05Z</time>
      </trkpt>
      <trkpt lat="46.274821003898978" lon="8.045705035328865">
        <ele>2129.459961</ele>
        <time>2013-03-27T12:34:24Z</time>
      </trkpt>
      <trkpt lat="46.274766018614173" lon="8.04554795846343">
        <ele>2128.0200199999999</ele>
        <time>2013-03-27T12:34:45Z</time>
      </trkpt>
      <trkpt lat="46.274768030270934" lon="8.045508982613683">
        <ele>2125.1301269999999</ele>
        <time>2013-03-27T12:34:47Z</time>
      </trkpt>
      <trkpt lat="46.274755038321018" lon="8.045402029529214">
        <ele>2122.25</ele>
        <time>2013-03-27T12:34:59Z</time>
      </trkpt>
      <trkpt lat="46.274714972823858" lon="8.045282000675798">
        <ele>2118.8801269999999</ele>
        <time>2013-03-27T12:35:13Z</time>
      </trkpt>
      <trkpt lat="46.274638026952744" lon="8.045190973207355">
        <ele>2116</ele>
        <time>2013-03-27T12:35:25Z</time>
      </trkpt>
      <trkpt lat="46.274668034166098" lon="8.045003972947598">
        <ele>2112.6298830000001</ele>
        <time>2013-03-27T12:35:43Z</time>
      </trkpt>
      <trkpt lat="46.274703992530704" lon="8.044911017641425">
        <ele>2112.6298830000001</ele>
        <time>2013-03-27T12:35:51Z</time>
      </trkpt>
      <trkpt lat="46.274733999744058" lon="8.044903976842761">
        <ele>2111.669922</ele>
        <time>2013-03-27T12:35:55Z</time>
      </trkpt>
      <trkpt lat="46.274838019162416" lon="8.044915962964296">
        <ele>2108.3098140000002</ele>
        <time>2013-03-27T12:36:08Z</time>
      </trkpt>
      <trkpt lat="46.274940026924014" lon="8.044838011264801">
        <ele>2105.419922</ele>
        <time>2013-03-27T12:36:24Z</time>
      </trkpt>
      <trkpt lat="46.275053014978766" lon="8.044895008206368">
        <ele>2103.0200199999999</ele>
        <time>2013-03-27T12:36:41Z</time>
      </trkpt>
      <trkpt lat="46.275158040225506" lon="8.04487899877131">
        <ele>2103.0200199999999</ele>
        <time>2013-03-27T12:37:06Z</time>
      </trkpt>
      <trkpt lat="46.275033988058567" lon="8.04494303651154">
        <ele>2103.0200199999999</ele>
        <time>2013-03-27T12:37:43Z</time>
      </trkpt>
      <trkpt lat="46.275143958628178" lon="8.044897019863129">
        <ele>2100.139893</ele>
        <time>2013-03-27T12:38:46Z</time>
      </trkpt>
      <trkpt lat="46.275155022740364" lon="8.044915962964296">
        <ele>2099.1801759999998</ele>
        <time>2013-03-27T12:38:49Z</time>
      </trkpt>
      <trkpt lat="46.275242026895285" lon="8.044938007369638">
        <ele>2097.7299800000001</ele>
        <time>2013-03-27T12:38:57Z</time>
      </trkpt>
      <trkpt lat="46.275305980816483" lon="8.044952005147934">
        <ele>2097.7299800000001</ele>
        <time>2013-03-27T12:39:01Z</time>
      </trkpt>
      <trkpt lat="46.27538301050663" lon="8.044910011813045">
        <ele>2094.3698730000001</ele>
        <time>2013-03-27T12:39:17Z</time>
      </trkpt>
      <trkpt lat="46.275386027991772" lon="8.044886961579323">
        <ele>2093.889893</ele>
        <time>2013-03-27T12:39:39Z</time>
      </trkpt>
      <trkpt lat="46.275347974151373" lon="8.044730974361301">
        <ele>2090.5200199999999</ele>
        <time>2013-03-27T12:39:52Z</time>
      </trkpt>
      <trkpt lat="46.275332970544696" lon="8.04468696936965">
        <ele>2089.5600589999999</ele>
        <time>2013-03-27T12:39:57Z</time>
      </trkpt>
      <trkpt lat="46.275318972766399" lon="8.044515978544951">
        <ele>2086.1999510000001</ele>
        <time>2013-03-27T12:40:13Z</time>
      </trkpt>
      <trkpt lat="46.275246972218156" lon="8.04446903988719">
        <ele>2084.280029</ele>
        <time>2013-03-27T12:40:33Z</time>
      </trkpt>
      <trkpt lat="46.275220988318324" lon="8.044360997155309">
        <ele>2082.830078</ele>
        <time>2013-03-27T12:40:50Z</time>
      </trkpt>
      <trkpt lat="46.275135995820165" lon="8.044115994125605">
        <ele>2081.3901369999999</ele>
        <time>2013-03-27T12:41:08Z</time>
      </trkpt>
      <trkpt lat="46.275240015238523" lon="8.044056985527277">
        <ele>2078.030029</ele>
        <time>2013-03-27T12:41:24Z</time>
      </trkpt>
      <trkpt lat="46.275302963331342" lon="8.043977022171021">
        <ele>2074.6601559999999</ele>
        <time>2013-03-27T12:41:41Z</time>
      </trkpt>
      <trkpt lat="46.275369012728333" lon="8.043926982209086">
        <ele>2071.780029</ele>
        <time>2013-03-27T12:41:55Z</time>
      </trkpt>
      <trkpt lat="46.275313021615148" lon="8.043813994154334">
        <ele>2068.4099120000001</ele>
        <time>2013-03-27T12:42:10Z</time>
      </trkpt>
      <trkpt lat="46.275259964168072" lon="8.043724978342652">
        <ele>2066.01001</ele>
        <time>2013-03-27T12:42:23Z</time>
      </trkpt>
      <trkpt lat="46.275209002196789" lon="8.043605033308268">
        <ele>2062.6501459999999</ele>
        <time>2013-03-27T12:42:39Z</time>
      </trkpt>
      <trkpt lat="46.275173965841532" lon="8.043492967262864">
        <ele>2059.280029</ele>
        <time>2013-03-27T12:42:51Z</time>
      </trkpt>
      <trkpt lat="46.275180000811815" lon="8.043403029441834">
        <ele>2057.3598630000001</ele>
        <time>2013-03-27T12:42:59Z</time>
      </trkpt>
      <trkpt lat="46.275206990540028" lon="8.043414009734988">
        <ele>2057.3598630000001</ele>
        <time>2013-03-27T12:43:01Z</time>
      </trkpt>
      <trkpt lat="46.275298018008471" lon="8.043492967262864">
        <ele>2054.469971</ele>
        <time>2013-03-27T12:43:13Z</time>
      </trkpt>
      <trkpt lat="46.275412011891603" lon="8.043542001396418">
        <ele>2050.6298830000001</ele>
        <time>2013-03-27T12:43:27Z</time>
      </trkpt>
      <trkpt lat="46.275519970804453" lon="8.043602015823126">
        <ele>2049.669922</ele>
        <time>2013-03-27T12:43:40Z</time>
      </trkpt>
      <trkpt lat="46.275741001591086" lon="8.043790021911264">
        <ele>2049.669922</ele>
        <time>2013-03-27T12:44:03Z</time>
      </trkpt>
      <trkpt lat="46.275902017951012" lon="8.043897980824113">
        <ele>2050.6298830000001</ele>
        <time>2013-03-27T12:44:21Z</time>
      </trkpt>
      <trkpt lat="46.27607200294733" lon="8.043980039656162">
        <ele>2050.6298830000001</ele>
        <time>2013-03-27T12:44:42Z</time>
      </trkpt>
      <trkpt lat="46.276187002658844" lon="8.044002000242472">
        <ele>2047.75</ele>
        <time>2013-03-27T12:44:59Z</time>
      </trkpt>
      <trkpt lat="46.276249028742313" lon="8.044061008840799">
        <ele>2046.780029</ele>
        <time>2013-03-27T12:45:22Z</time>
      </trkpt>
      <trkpt lat="46.276312982663512" lon="8.044100990518928">
        <ele>2043.419922</ele>
        <time>2013-03-27T12:45:47Z</time>
      </trkpt>
      <trkpt lat="46.27639202401042" lon="8.044210961088538">
        <ele>2040.540039</ele>
        <time>2013-03-27T12:46:03Z</time>
      </trkpt>
      <trkpt lat="46.276507023721933" lon="8.044223031029105">
        <ele>2037.650024</ele>
        <time>2013-03-27T12:46:17Z</time>
      </trkpt>
      <trkpt lat="46.276594027876854" lon="8.044242979958654">
        <ele>2034.2899170000001</ele>
        <time>2013-03-27T12:46:29Z</time>
      </trkpt>
      <trkpt lat="46.276668962091208" lon="8.044367032125592">
        <ele>2031.400024</ele>
        <time>2013-03-27T12:46:44Z</time>
      </trkpt>
      <trkpt lat="46.276791002601385" lon="8.044431991875172">
        <ele>2028.0399170000001</ele>
        <time>2013-03-27T12:47:00Z</time>
      </trkpt>
      <trkpt lat="46.27686602063477" lon="8.044454036280513">
        <ele>2025.150024</ele>
        <time>2013-03-27T12:47:10Z</time>
      </trkpt>
      <trkpt lat="46.27695201896131" lon="8.044532993808389">
        <ele>2021.790039</ele>
        <time>2013-03-27T12:47:24Z</time>
      </trkpt>
      <trkpt lat="46.277036005631089" lon="8.044521007686853">
        <ele>2019.869995</ele>
        <time>2013-03-27T12:47:42Z</time>
      </trkpt>
      <trkpt lat="46.277084033936262" lon="8.044581022113562">
        <ele>2016.9801030000001</ele>
        <time>2013-03-27T12:48:04Z</time>
      </trkpt>
      <trkpt lat="46.27716701477766" lon="8.044622009620071">
        <ele>2014.099976</ele>
        <time>2013-03-27T12:48:17Z</time>
      </trkpt>
      <trkpt lat="46.27725200727582" lon="8.044696021825075">
        <ele>2010.7299800000001</ele>
        <time>2013-03-27T12:48:31Z</time>
      </trkpt>
      <trkpt lat="46.277326019480824" lon="8.044826025143266">
        <ele>2008.330078</ele>
        <time>2013-03-27T12:48:57Z</time>
      </trkpt>
      <trkpt lat="46.277341023087502" lon="8.044581022113562">
        <ele>2004.969971</ele>
        <time>2013-03-27T12:49:25Z</time>
      </trkpt>
      <trkpt lat="46.277356026694179" lon="8.044378012418747">
        <ele>2002.079956</ele>
        <time>2013-03-27T12:49:42Z</time>
      </trkpt>
      <trkpt lat="46.277329036965966" lon="8.044248009100556">
        <ele>1998.7200929999999</ele>
        <time>2013-03-27T12:49:54Z</time>
      </trkpt>
      <trkpt lat="46.277378993108869" lon="8.044282961636782">
        <ele>1995.349976</ele>
        <time>2013-03-27T12:50:09Z</time>
      </trkpt>
      <trkpt lat="46.277462979778647" lon="8.044266030192375">
        <ele>1992.469971</ele>
        <time>2013-03-27T12:50:20Z</time>
      </trkpt>
      <trkpt lat="46.277463985607028" lon="8.044083975255489">
        <ele>1989.099976</ele>
        <time>2013-03-27T12:50:33Z</time>
      </trkpt>
      <trkpt lat="46.277453005313873" lon="8.043975010514259">
        <ele>1985.73999</ele>
        <time>2013-03-27T12:50:47Z</time>
      </trkpt>
      <trkpt lat="46.277463985607028" lon="8.043893035501242">
        <ele>1985.26001</ele>
        <time>2013-03-27T12:50:53Z</time>
      </trkpt>
      <trkpt lat="46.277474965900183" lon="8.043875014409423">
        <ele>1984.299927</ele>
        <time>2013-03-27T12:50:55Z</time>
      </trkpt>
      <trkpt lat="46.277457028627396" lon="8.043732019141316">
        <ele>1981.8999020000001</ele>
        <time>2013-03-27T12:51:09Z</time>
      </trkpt>
      <trkpt lat="46.277482006698847" lon="8.043707041069865">
        <ele>1979.01001</ele>
        <time>2013-03-27T12:51:20Z</time>
      </trkpt>
      <trkpt lat="46.277604969218373" lon="8.04382698610425">
        <ele>1975.650024</ele>
        <time>2013-03-27T12:51:40Z</time>
      </trkpt>
      <trkpt lat="46.277687028050423" lon="8.043860010802746">
        <ele>1974.6899410000001</ele>
        <time>2013-03-27T12:51:59Z</time>
      </trkpt>
      <trkpt lat="46.277796998620033" lon="8.043932011350989">
        <ele>1971.320068</ele>
        <time>2013-03-27T12:52:20Z</time>
      </trkpt>
      <trkpt lat="46.277868999168277" lon="8.043979033827782">
        <ele>1968.440063</ele>
        <time>2013-03-27T12:52:35Z</time>
      </trkpt>
      <trkpt lat="46.278009982779622" lon="8.044124962761998">
        <ele>1965.070068</ele>
        <time>2013-03-27T12:52:52Z</time>
      </trkpt>
      <trkpt lat="46.278074020519853" lon="8.044192017987371">
        <ele>1962.190063</ele>
        <time>2013-03-27T12:53:03Z</time>
      </trkpt>
      <trkpt lat="46.278063040226698" lon="8.044153964146972">
        <ele>1961.7100829999999</ele>
        <time>2013-03-27T12:53:07Z</time>
      </trkpt>
      <trkpt lat="46.2781129963696" lon="8.044076012447476">
        <ele>1960.2700199999999</ele>
        <time>2013-03-27T12:53:17Z</time>
      </trkpt>
      <trkpt lat="46.278123976662755" lon="8.044081041589379">
        <ele>1959.780029</ele>
        <time>2013-03-27T12:53:18Z</time>
      </trkpt>
      <trkpt lat="46.278202012181282" lon="8.044163016602397">
        <ele>1956.8999020000001</ele>
        <time>2013-03-27T12:53:34Z</time>
      </trkpt>
      <trkpt lat="46.278206035494804" lon="8.044137032702565">
        <ele>1956.8999020000001</ele>
        <time>2013-03-27T12:53:49Z</time>
      </trkpt>
      <trkpt lat="46.278183991089463" lon="8.044166034087539">
        <ele>1955.9399410000001</ele>
        <time>2013-03-27T12:54:17Z</time>
      </trkpt>
      <trkpt lat="46.278263032436371" lon="8.044052962213755">
        <ele>1954.0200199999999</ele>
        <time>2013-03-27T12:54:34Z</time>
      </trkpt>
      <trkpt lat="46.278278036043048" lon="8.044067965820432">
        <ele>1951.6099850000001</ele>
        <time>2013-03-27T12:54:37Z</time>
      </trkpt>
      <trkpt lat="46.278385994955897" lon="8.044111970812082">
        <ele>1949.209961</ele>
        <time>2013-03-27T12:54:53Z</time>
      </trkpt>
      <trkpt lat="46.278360011056066" lon="8.043962018564344">
        <ele>1946.329956</ele>
        <time>2013-03-27T12:55:07Z</time>
      </trkpt>
      <trkpt lat="46.278378032147884" lon="8.043836960569024">
        <ele>1942.959961</ele>
        <time>2013-03-27T12:55:19Z</time>
      </trkpt>
      <trkpt lat="46.278342995792627" lon="8.043709974735975">
        <ele>1940.079956</ele>
        <time>2013-03-27T12:55:32Z</time>
      </trkpt>
      <trkpt lat="46.278459001332521" lon="8.043746016919613">
        <ele>1938.1599120000001</ele>
        <time>2013-03-27T12:55:46Z</time>
      </trkpt>
      <trkpt lat="46.278513986617327" lon="8.043772000819445">
        <ele>1935.2700199999999</ele>
        <time>2013-03-27T12:56:04Z</time>
      </trkpt>
      <trkpt lat="46.278581963852048" lon="8.043536972254515">
        <ele>1931.910034</ele>
        <time>2013-03-27T12:56:21Z</time>
      </trkpt>
      <trkpt lat="46.278619011864066" lon="8.043377967551351">
        <ele>1928.540039</ele>
        <time>2013-03-27T12:56:37Z</time>
      </trkpt>
      <trkpt lat="46.278744991868734" lon="8.043394982814789">
        <ele>1925.1800539999999</ele>
        <time>2013-03-27T12:56:51Z</time>
      </trkpt>
      <trkpt lat="46.278816992416978" lon="8.043324993923307">
        <ele>1922.2899170000001</ele>
        <time>2013-03-27T12:57:06Z</time>
      </trkpt>
      <trkpt lat="46.278892010450363" lon="8.043261962011457">
        <ele>1920.8500979999999</ele>
        <time>2013-03-27T12:57:23Z</time>
      </trkpt>
      <trkpt lat="46.27877701073885" lon="8.043107986450195">
        <ele>1917.48999</ele>
        <time>2013-03-27T12:57:55Z</time>
      </trkpt>
      <trkpt lat="46.278798971325159" lon="8.042936995625496">
        <ele>1914.599976</ele>
        <time>2013-03-27T12:58:10Z</time>
      </trkpt>
      <trkpt lat="46.278916988521814" lon="8.042927021160722">
        <ele>1914.119995</ele>
        <time>2013-03-27T12:58:27Z</time>
      </trkpt>
      <trkpt lat="46.278921011835337" lon="8.042929032817483">
        <ele>1910.280029</ele>
        <time>2013-03-27T12:58:28Z</time>
      </trkpt>
      <trkpt lat="46.278927968814969" lon="8.042949987575412">
        <ele>1909.8000489999999</ele>
        <time>2013-03-27T12:58:29Z</time>
      </trkpt>
      <trkpt lat="46.279052020981908" lon="8.042935989797115">
        <ele>1906.910034</ele>
        <time>2013-03-27T12:58:44Z</time>
      </trkpt>
      <trkpt lat="46.279145982116461" lon="8.042982006445527">
        <ele>1903.549927</ele>
        <time>2013-03-27T12:58:58Z</time>
      </trkpt>
      <trkpt lat="46.279281014576554" lon="8.043025005608797">
        <ele>1900.660034</ele>
        <time>2013-03-27T12:59:12Z</time>
      </trkpt>
      <trkpt lat="46.279329964891076" lon="8.043025005608797">
        <ele>1899.6999510000001</ele>
        <time>2013-03-27T12:59:44Z</time>
      </trkpt>
      <trkpt lat="46.27935603260994" lon="8.042920986190438">
        <ele>1896.339966</ele>
        <time>2013-03-27T12:59:55Z</time>
      </trkpt>
      <trkpt lat="46.279381010681391" lon="8.0427520070225">
        <ele>1893.9300539999999</ele>
        <time>2013-03-27T13:00:09Z</time>
      </trkpt>
      <trkpt lat="46.279382016509771" lon="8.042591996490955">
        <ele>1890.570068</ele>
        <time>2013-03-27T13:00:24Z</time>
      </trkpt>
      <trkpt lat="46.27935896627605" lon="8.042441038414836">
        <ele>1887.6899410000001</ele>
        <time>2013-03-27T13:00:36Z</time>
      </trkpt>
      <trkpt lat="46.279340023174882" lon="8.042367026209831">
        <ele>1886.7200929999999</ele>
        <time>2013-03-27T13:00:41Z</time>
      </trkpt>
      <trkpt lat="46.279318984597921" lon="8.042185977101326">
        <ele>1883.8400879999999</ele>
        <time>2013-03-27T13:00:58Z</time>
      </trkpt>
      <trkpt lat="46.279332982376218" lon="8.042072989046574">
        <ele>1880.959961</ele>
        <time>2013-03-27T13:01:11Z</time>
      </trkpt>
      <trkpt lat="46.279284032061696" lon="8.041936028748751">
        <ele>1879.0299070000001</ele>
        <time>2013-03-27T13:01:24Z</time>
      </trkpt>
      <trkpt lat="46.279424009844661" lon="8.041872996836901">
        <ele>1877.110107</ele>
        <time>2013-03-27T13:01:44Z</time>
      </trkpt>
      <trkpt lat="46.27944597043097" lon="8.041882971301675">
        <ele>1875.670044</ele>
        <time>2013-03-27T13:01:46Z</time>
      </trkpt>
      <trkpt lat="46.279543032869697" lon="8.041888000443578">
        <ele>1873.75</ele>
        <time>2013-03-27T13:02:01Z</time>
      </trkpt>
      <trkpt lat="46.279472038149834" lon="8.041706029325724">
        <ele>1870.8599850000001</ele>
        <time>2013-03-27T13:02:17Z</time>
      </trkpt>
      <trkpt lat="46.279502967372537" lon="8.041551969945431">
        <ele>1867.4998780000001</ele>
        <time>2013-03-27T13:02:32Z</time>
      </trkpt>
      <trkpt lat="46.27948896959424" lon="8.041471000760794">
        <ele>1866.0600589999999</ele>
        <time>2013-03-27T13:02:37Z</time>
      </trkpt>
      <trkpt lat="46.279576979577541" lon="8.041253993287683">
        <ele>1863.650024</ele>
        <time>2013-03-27T13:02:55Z</time>
      </trkpt>
      <trkpt lat="46.27961503341794" lon="8.041211999952793">
        <ele>1862.6899410000001</ele>
        <time>2013-03-27T13:03:08Z</time>
      </trkpt>
      <trkpt lat="46.279606986790895" lon="8.041222980245948">
        <ele>1861.7299800000001</ele>
        <time>2013-03-27T13:03:57Z</time>
      </trkpt>
      <trkpt lat="46.279725003987551" lon="8.041047966107726">
        <ele>1858.3701169999999</ele>
        <time>2013-03-27T13:04:14Z</time>
      </trkpt>
      <trkpt lat="46.279727015644312" lon="8.040994992479682">
        <ele>1856.920044</ele>
        <time>2013-03-27T13:04:24Z</time>
      </trkpt>
      <trkpt lat="46.279683010652661" lon="8.040907988324761">
        <ele>1855.4799800000001</ele>
        <time>2013-03-27T13:04:38Z</time>
      </trkpt>
      <trkpt lat="46.279624002054334" lon="8.04084001109004">
        <ele>1854.040039</ele>
        <time>2013-03-27T13:04:56Z</time>
      </trkpt>
      <trkpt lat="46.279471032321453" lon="8.040701039135456">
        <ele>1852.119995</ele>
        <time>2013-03-27T13:06:15Z</time>
      </trkpt>
      <trkpt lat="46.279370030388236" lon="8.040611017495394">
        <ele>1850.679932</ele>
        <time>2013-03-27T13:06:30Z</time>
      </trkpt>
      <trkpt lat="46.27935603260994" lon="8.040417982265353">
        <ele>1847.3100589999999</ele>
        <time>2013-03-27T13:06:48Z</time>
      </trkpt>
      <trkpt lat="46.279489975422621" lon="8.040357967838645">
        <ele>1844.429932</ele>
        <time>2013-03-27T13:07:04Z</time>
      </trkpt>
      <trkpt lat="46.279732966795564" lon="8.040243973955512">
        <ele>1841.0600589999999</ele>
        <time>2013-03-27T13:07:26Z</time>
      </trkpt>
      <trkpt lat="46.279861964285374" lon="8.04017499089241">
        <ele>1838.1800539999999</ele>
        <time>2013-03-27T13:07:41Z</time>
      </trkpt>
      <trkpt lat="46.280005965381861" lon="8.040006011724472">
        <ele>1836.26001</ele>
        <time>2013-03-27T13:07:57Z</time>
      </trkpt>
      <trkpt lat="46.280190031975508" lon="8.039840972051024">
        <ele>1834.329956</ele>
        <time>2013-03-27T13:08:21Z</time>
      </trkpt>
      <trkpt lat="46.280319029465318" lon="8.039828985929489">
        <ele>1831.450073</ele>
        <time>2013-03-27T13:08:36Z</time>
      </trkpt>
      <trkpt lat="46.28041097894311" lon="8.03976503200829">
        <ele>1829.0500489999999</ele>
        <time>2013-03-27T13:08:53Z</time>
      </trkpt>
      <trkpt lat="46.280343001708388" lon="8.039692025631666">
        <ele>1827.119995</ele>
        <time>2013-03-27T13:09:06Z</time>
      </trkpt>
      <trkpt lat="46.280263038352132" lon="8.039608038961887">
        <ele>1825.679932</ele>
        <time>2013-03-27T13:09:16Z</time>
      </trkpt>
      <trkpt lat="46.2801109906286" lon="8.039524974301457">
        <ele>1821.8400879999999</ele>
        <time>2013-03-27T13:09:34Z</time>
      </trkpt>
      <trkpt lat="46.280194977298379" lon="8.039354989305139">
        <ele>1818.469971</ele>
        <time>2013-03-27T13:09:51Z</time>
      </trkpt>
      <trkpt lat="46.280365968123078" lon="8.039288017898798">
        <ele>1816.549927</ele>
        <time>2013-03-27T13:10:09Z</time>
      </trkpt>
      <trkpt lat="46.280665034428239" lon="8.039267985150218">
        <ele>1813.660034</ele>
        <time>2013-03-27T13:10:33Z</time>
      </trkpt>
      <trkpt lat="46.28075597807765" lon="8.039320958778262">
        <ele>1810.780029</ele>
        <time>2013-03-27T13:10:48Z</time>
      </trkpt>
      <trkpt lat="46.280956976115704" lon="8.039205959066749">
        <ele>1809.339966</ele>
        <time>2013-03-27T13:11:09Z</time>
      </trkpt>
      <trkpt lat="46.281050015240908" lon="8.03907603956759">
        <ele>1807.900024</ele>
        <time>2013-03-27T13:11:23Z</time>
      </trkpt>
      <trkpt lat="46.281149005517364" lon="8.03890697658062">
        <ele>1804.530029</ele>
        <time>2013-03-27T13:11:39Z</time>
      </trkpt>
      <trkpt lat="46.281149005517364" lon="8.038879986852408">
        <ele>1804.530029</ele>
        <time>2013-03-27T13:12:07Z</time>
      </trkpt>
      <trkpt lat="46.281139031052589" lon="8.038846040144563">
        <ele>1804.0500489999999</ele>
        <time>2013-03-27T13:12:28Z</time>
      </trkpt>
      <trkpt lat="46.281177001073956" lon="8.038733974099159">
        <ele>1801.650024</ele>
        <time>2013-03-27T13:12:56Z</time>
      </trkpt>
      <trkpt lat="46.281252019107342" lon="8.03873497992754">
        <ele>1799.7299800000001</ele>
        <time>2013-03-27T13:13:20Z</time>
      </trkpt>
      <trkpt lat="46.281268028542399" lon="8.038611011579633">
        <ele>1796.3599850000001</ele>
        <time>2013-03-27T13:13:34Z</time>
      </trkpt>
      <trkpt lat="46.281139031052589" lon="8.038381012156606">
        <ele>1793.4799800000001</ele>
        <time>2013-03-27T13:13:57Z</time>
      </trkpt>
      <trkpt lat="46.281125033274293" lon="8.038170039653778">
        <ele>1790.589966</ele>
        <time>2013-03-27T13:14:14Z</time>
      </trkpt>
      <trkpt lat="46.281046997755766" lon="8.038015980273485">
        <ele>1787.2301030000001</ele>
        <time>2013-03-27T13:14:27Z</time>
      </trkpt>
      <trkpt lat="46.281025037169456" lon="8.037868961691856">
        <ele>1783.8599850000001</ele>
        <time>2013-03-27T13:14:41Z</time>
      </trkpt>
      <trkpt lat="46.280977008864284" lon="8.037791009992361">
        <ele>1781.9399410000001</ele>
        <time>2013-03-27T13:14:54Z</time>
      </trkpt>
      <trkpt lat="46.280963011085987" lon="8.037696965038776">
        <ele>1779.0600589999999</ele>
        <time>2013-03-27T13:15:10Z</time>
      </trkpt>
      <trkpt lat="46.280805012211204" lon="8.0376370344311">
        <ele>1776.170044</ele>
        <time>2013-03-27T13:15:30Z</time>
      </trkpt>
      <trkpt lat="46.280709039419889" lon="8.037647008895874">
        <ele>1774.25</ele>
        <time>2013-03-27T13:15:41Z</time>
      </trkpt>
      <trkpt lat="46.280607031658292" lon="8.037579031661153">
        <ele>1770.889893</ele>
        <time>2013-03-27T13:15:54Z</time>
      </trkpt>
      <trkpt lat="46.280482979491353" lon="8.03753100335598">
        <ele>1768</ele>
        <time>2013-03-27T13:16:08Z</time>
      </trkpt>
      <trkpt lat="46.280468981713057" lon="8.037532009184361">
        <ele>1767.5200199999999</ele>
        <time>2013-03-27T13:16:10Z</time>
      </trkpt>
      <trkpt lat="46.280341995880008" lon="8.037479035556316">
        <ele>1764.1599120000001</ele>
        <time>2013-03-27T13:16:26Z</time>
      </trkpt>
      <trkpt lat="46.28025901503861" lon="8.037436036393046">
        <ele>1761.2700199999999</ele>
        <time>2013-03-27T13:16:37Z</time>
      </trkpt>
      <trkpt lat="46.280244011431932" lon="8.037459002807736">
        <ele>1760.790039</ele>
        <time>2013-03-27T13:16:54Z</time>
      </trkpt>
      <trkpt lat="46.280265972018242" lon="8.037486998364329">
        <ele>1760.790039</ele>
        <time>2013-03-27T13:17:15Z</time>
      </trkpt>
      <trkpt lat="46.280132029205561" lon="8.037405023351312">
        <ele>1757.910034</ele>
        <time>2013-03-27T13:17:37Z</time>
      </trkpt>
      <trkpt lat="46.280018035322428" lon="8.037477023899555">
        <ele>1754.5399170000001</ele>
        <time>2013-03-27T13:17:50Z</time>
      </trkpt>
      <trkpt lat="46.279892977327108" lon="8.037579031661153">
        <ele>1753.1000979999999</ele>
        <time>2013-03-27T13:18:08Z</time>
      </trkpt>
      <trkpt lat="46.279861964285374" lon="8.037529997527599">
        <ele>1753.1000979999999</ele>
        <time>2013-03-27T13:18:25Z</time>
      </trkpt>
      <trkpt lat="46.279831035062671" lon="8.037551958113909">
        <ele>1753.1000979999999</ele>
        <time>2013-03-27T13:18:44Z</time>
      </trkpt>
    </trkseg>
  </trk>

</gpx>